<?xml version="1.0" encoding="UTF-8" standalone="no" ?>
<gpx xmlns="http://www.topografix.com/GPX/1/1" xmlns:xsi="http://www.w3.org/2001/XMLSchema-instance" xsi:schemaLocation="http://www.topografix.com/GPX/1/1 http://www.topografix.com/GPX/1/1/gpx.xsd" version="1.1" creator="VisuGPX - https://www.visugpx.com">
  <metadata>
    <name>CAP 10km à Lamothe</name>
    <desc><![CDATA[Course à pieds de 10km autour de Lamothe avec mix bitume et chemin.]]></desc>
  </metadata>
  <trk>
    <name><![CDATA[CAP 10km à Lamothe_1]]></name>
    <trkseg>
      <trkpt lat="44.82384" lon="1.41059">
        <ele>174.52354431152</ele>
        <time>2011-12-27T08:30:12Z</time>
      </trkpt>
      <trkpt lat="44.82386" lon="1.4106">
        <ele>174.47204589844</ele>
        <time>2011-12-27T08:30:13Z</time>
      </trkpt>
      <trkpt lat="44.82395" lon="1.41071">
        <ele>174.15991210938</ele>
        <time>2011-12-27T08:30:18Z</time>
      </trkpt>
      <trkpt lat="44.82406" lon="1.41076">
        <ele>173.95320129394</ele>
        <time>2011-12-27T08:30:23Z</time>
      </trkpt>
      <trkpt lat="44.82411" lon="1.41073">
        <ele>173.77496337891</ele>
        <time>2011-12-27T08:30:25Z</time>
      </trkpt>
      <trkpt lat="44.82415" lon="1.4107">
        <ele>173.55683898926</ele>
        <time>2011-12-27T08:30:27Z</time>
      </trkpt>
      <trkpt lat="44.82417" lon="1.41068">
        <ele>173.36424255371</ele>
        <time>2011-12-27T08:30:28Z</time>
      </trkpt>
      <trkpt lat="44.82421" lon="1.41062">
        <ele>172.68305969238</ele>
        <time>2011-12-27T08:30:30Z</time>
      </trkpt>
      <trkpt lat="44.82425" lon="1.41056">
        <ele>172.02632141113</ele>
        <time>2011-12-27T08:30:32Z</time>
      </trkpt>
      <trkpt lat="44.82435" lon="1.41043">
        <ele>170.26913452148</ele>
        <time>2011-12-27T08:30:37Z</time>
      </trkpt>
      <trkpt lat="44.82448" lon="1.41038">
        <ele>168.42109680176</ele>
        <time>2011-12-27T08:30:42Z</time>
      </trkpt>
      <trkpt lat="44.82457" lon="1.41025">
        <ele>166.67782592773</ele>
        <time>2011-12-27T08:30:47Z</time>
      </trkpt>
      <trkpt lat="44.82468" lon="1.41012">
        <ele>164.73788452148</ele>
        <time>2011-12-27T08:30:52Z</time>
      </trkpt>
      <trkpt lat="44.82479" lon="1.41015">
        <ele>163.44036865234</ele>
        <time>2011-12-27T08:30:56Z</time>
      </trkpt>
      <trkpt lat="44.82499" lon="1.41024">
        <ele>161.34770202637</ele>
        <time>2011-12-27T08:31:03Z</time>
      </trkpt>
      <trkpt lat="44.82509" lon="1.41029">
        <ele>160.4483795166</ele>
        <time>2011-12-27T08:31:07Z</time>
      </trkpt>
      <trkpt lat="44.82523" lon="1.41039">
        <ele>159.28466796875</ele>
        <time>2011-12-27T08:31:12Z</time>
      </trkpt>
      <trkpt lat="44.82534" lon="1.4105">
        <ele>158.43107604981</ele>
        <time>2011-12-27T08:31:17Z</time>
      </trkpt>
      <trkpt lat="44.82549" lon="1.41063">
        <ele>156.94128417969</ele>
        <time>2011-12-27T08:31:23Z</time>
      </trkpt>
      <trkpt lat="44.8256" lon="1.41075">
        <ele>155.90425109863</ele>
        <time>2011-12-27T08:31:28Z</time>
      </trkpt>
      <trkpt lat="44.82571" lon="1.41089">
        <ele>154.17607116699</ele>
        <time>2011-12-27T08:31:33Z</time>
      </trkpt>
      <trkpt lat="44.82572" lon="1.41091">
        <ele>153.76762390137</ele>
        <time>2011-12-27T08:31:34Z</time>
      </trkpt>
      <trkpt lat="44.82582" lon="1.41102">
        <ele>151.57440185547</ele>
        <time>2011-12-27T08:31:38Z</time>
      </trkpt>
      <trkpt lat="44.82592" lon="1.41112">
        <ele>150.787109375</ele>
        <time>2011-12-27T08:31:42Z</time>
      </trkpt>
      <trkpt lat="44.82607" lon="1.41126">
        <ele>149.69285583496</ele>
        <time>2011-12-27T08:31:48Z</time>
      </trkpt>
      <trkpt lat="44.82618" lon="1.41138">
        <ele>148.52314758301</ele>
        <time>2011-12-27T08:31:53Z</time>
      </trkpt>
      <trkpt lat="44.82623" lon="1.41152">
        <ele>147.08129882812</ele>
        <time>2011-12-27T08:31:57Z</time>
      </trkpt>
      <trkpt lat="44.82623" lon="1.41159">
        <ele>146.3896484375</ele>
        <time>2011-12-27T08:31:59Z</time>
      </trkpt>
      <trkpt lat="44.82626" lon="1.41172">
        <ele>144.71627807617</ele>
        <time>2011-12-27T08:32:02Z</time>
      </trkpt>
      <trkpt lat="44.82631" lon="1.41188">
        <ele>142.21353149414</ele>
        <time>2011-12-27T08:32:07Z</time>
      </trkpt>
      <trkpt lat="44.82639" lon="1.41193">
        <ele>141.48251342773</ele>
        <time>2011-12-27T08:32:10Z</time>
      </trkpt>
      <trkpt lat="44.82642" lon="1.41193">
        <ele>141.42764282227</ele>
        <time>2011-12-27T08:32:11Z</time>
      </trkpt>
      <trkpt lat="44.82658" lon="1.41194">
        <ele>141.31086730957</ele>
        <time>2011-12-27T08:32:17Z</time>
      </trkpt>
      <trkpt lat="44.8267" lon="1.41196">
        <ele>141.3126373291</ele>
        <time>2011-12-27T08:32:22Z</time>
      </trkpt>
      <trkpt lat="44.82681" lon="1.412">
        <ele>141.19822692871</ele>
        <time>2011-12-27T08:32:26Z</time>
      </trkpt>
      <trkpt lat="44.8269" lon="1.41208">
        <ele>140.36268615723</ele>
        <time>2011-12-27T08:32:30Z</time>
      </trkpt>
      <trkpt lat="44.82703" lon="1.4122">
        <ele>138.97305297852</ele>
        <time>2011-12-27T08:32:35Z</time>
      </trkpt>
      <trkpt lat="44.82714" lon="1.41235">
        <ele>136.55766296387</ele>
        <time>2011-12-27T08:32:40Z</time>
      </trkpt>
      <trkpt lat="44.82729" lon="1.41238">
        <ele>136.18202209473</ele>
        <time>2011-12-27T08:32:45Z</time>
      </trkpt>
      <trkpt lat="44.82734" lon="1.41237">
        <ele>136.43572998047</ele>
        <time>2011-12-27T08:32:47Z</time>
      </trkpt>
      <trkpt lat="44.82749" lon="1.41233">
        <ele>137.40194702148</ele>
        <time>2011-12-27T08:32:52Z</time>
      </trkpt>
      <trkpt lat="44.8276" lon="1.41232">
        <ele>137.67889404297</ele>
        <time>2011-12-27T08:32:56Z</time>
      </trkpt>
      <trkpt lat="44.8278" lon="1.41232">
        <ele>137.67562866211</ele>
        <time>2011-12-27T08:33:02Z</time>
      </trkpt>
      <trkpt lat="44.82794" lon="1.4123">
        <ele>138.04479980469</ele>
        <time>2011-12-27T08:33:07Z</time>
      </trkpt>
      <trkpt lat="44.82806" lon="1.41228">
        <ele>138.32173156738</ele>
        <time>2011-12-27T08:33:12Z</time>
      </trkpt>
      <trkpt lat="44.82821" lon="1.41228">
        <ele>138.19593811035</ele>
        <time>2011-12-27T08:33:17Z</time>
      </trkpt>
      <trkpt lat="44.82827" lon="1.41228">
        <ele>138.23327636719</ele>
        <time>2011-12-27T08:33:19Z</time>
      </trkpt>
      <trkpt lat="44.82838" lon="1.41229">
        <ele>138.07711791992</ele>
        <time>2011-12-27T08:33:24Z</time>
      </trkpt>
      <trkpt lat="44.82851" lon="1.41228">
        <ele>138.12963867188</ele>
        <time>2011-12-27T08:33:29Z</time>
      </trkpt>
      <trkpt lat="44.82866" lon="1.41231">
        <ele>137.52488708496</ele>
        <time>2011-12-27T08:33:34Z</time>
      </trkpt>
      <trkpt lat="44.82883" lon="1.41236">
        <ele>136.76560974121</ele>
        <time>2011-12-27T08:33:40Z</time>
      </trkpt>
      <trkpt lat="44.82897" lon="1.41238">
        <ele>136.56060791016</ele>
        <time>2011-12-27T08:33:45Z</time>
      </trkpt>
      <trkpt lat="44.82911" lon="1.41242">
        <ele>136.04148864746</ele>
        <time>2011-12-27T08:33:50Z</time>
      </trkpt>
      <trkpt lat="44.82921" lon="1.41248">
        <ele>134.93843078613</ele>
        <time>2011-12-27T08:33:54Z</time>
      </trkpt>
      <trkpt lat="44.82933" lon="1.41264">
        <ele>132.33148193359</ele>
        <time>2011-12-27T08:34:00Z</time>
      </trkpt>
      <trkpt lat="44.8295" lon="1.41282">
        <ele>129.37782287598</ele>
        <time>2011-12-27T08:34:07Z</time>
      </trkpt>
      <trkpt lat="44.82962" lon="1.41294">
        <ele>127.59921264648</ele>
        <time>2011-12-27T08:34:12Z</time>
      </trkpt>
      <trkpt lat="44.82974" lon="1.41305">
        <ele>126.11968994141</ele>
        <time>2011-12-27T08:34:17Z</time>
      </trkpt>
      <trkpt lat="44.82986" lon="1.41308">
        <ele>125.50744628906</ele>
        <time>2011-12-27T08:34:21Z</time>
      </trkpt>
      <trkpt lat="44.83002" lon="1.41309">
        <ele>124.97895050049</ele>
        <time>2011-12-27T08:34:26Z</time>
      </trkpt>
      <trkpt lat="44.83017" lon="1.41305">
        <ele>124.86797332764</ele>
        <time>2011-12-27T08:34:31Z</time>
      </trkpt>
      <trkpt lat="44.83033" lon="1.41296">
        <ele>124.85879516602</ele>
        <time>2011-12-27T08:34:37Z</time>
      </trkpt>
      <trkpt lat="44.83047" lon="1.4129">
        <ele>124.63074493408</ele>
        <time>2011-12-27T08:34:42Z</time>
      </trkpt>
      <trkpt lat="44.83061" lon="1.41286">
        <ele>124.18975067139</ele>
        <time>2011-12-27T08:34:47Z</time>
      </trkpt>
      <trkpt lat="44.83079" lon="1.41282">
        <ele>123.4376373291</ele>
        <time>2011-12-27T08:34:53Z</time>
      </trkpt>
      <trkpt lat="44.83091" lon="1.4128">
        <ele>123.13917541504</ele>
        <time>2011-12-27T08:34:57Z</time>
      </trkpt>
      <trkpt lat="44.83108" lon="1.41274">
        <ele>122.88201904297</ele>
        <time>2011-12-27T08:35:03Z</time>
      </trkpt>
      <trkpt lat="44.83122" lon="1.41271">
        <ele>122.56549072266</ele>
        <time>2011-12-27T08:35:08Z</time>
      </trkpt>
      <trkpt lat="44.83137" lon="1.41273">
        <ele>122.23226165772</ele>
        <time>2011-12-27T08:35:13Z</time>
      </trkpt>
      <trkpt lat="44.83154" lon="1.41277">
        <ele>121.9157409668</ele>
        <time>2011-12-27T08:35:19Z</time>
      </trkpt>
      <trkpt lat="44.83172" lon="1.41282">
        <ele>121.69166564941</ele>
        <time>2011-12-27T08:35:25Z</time>
      </trkpt>
      <trkpt lat="44.83186" lon="1.41286">
        <ele>121.53277587891</ele>
        <time>2011-12-27T08:35:30Z</time>
      </trkpt>
      <trkpt lat="44.832" lon="1.41287">
        <ele>121.31744384766</ele>
        <time>2011-12-27T08:35:35Z</time>
      </trkpt>
      <trkpt lat="44.83206" lon="1.41286">
        <ele>121.1851272583</ele>
        <time>2011-12-27T08:35:37Z</time>
      </trkpt>
      <trkpt lat="44.83222" lon="1.4127">
        <ele>120.64767456055</ele>
        <time>2011-12-27T08:35:44Z</time>
      </trkpt>
      <trkpt lat="44.83234" lon="1.41257">
        <ele>120.29130554199</ele>
        <time>2011-12-27T08:35:49Z</time>
      </trkpt>
      <trkpt lat="44.83249" lon="1.41244">
        <ele>120.01588439941</ele>
        <time>2011-12-27T08:35:55Z</time>
      </trkpt>
      <trkpt lat="44.83261" lon="1.41233">
        <ele>119.94881439209</ele>
        <time>2011-12-27T08:36:00Z</time>
      </trkpt>
      <trkpt lat="44.83265" lon="1.4123">
        <ele>119.91342163086</ele>
        <time>2011-12-27T08:36:02Z</time>
      </trkpt>
      <trkpt lat="44.83274" lon="1.41245">
        <ele>119.96348571777</ele>
        <time>2011-12-27T08:36:06Z</time>
      </trkpt>
      <trkpt lat="44.83279" lon="1.41261">
        <ele>120.2233581543</ele>
        <time>2011-12-27T08:36:10Z</time>
      </trkpt>
      <trkpt lat="44.8329" lon="1.41265">
        <ele>120.3546295166</ele>
        <time>2011-12-27T08:36:15Z</time>
      </trkpt>
      <trkpt lat="44.83308" lon="1.41272">
        <ele>120.61891174316</ele>
        <time>2011-12-27T08:36:22Z</time>
      </trkpt>
      <trkpt lat="44.8332" lon="1.41276">
        <ele>120.82300567627</ele>
        <time>2011-12-27T08:36:27Z</time>
      </trkpt>
      <trkpt lat="44.8333" lon="1.41276">
        <ele>120.90065002441</ele>
        <time>2011-12-27T08:36:31Z</time>
      </trkpt>
      <trkpt lat="44.83343" lon="1.41271">
        <ele>120.90831756592</ele>
        <time>2011-12-27T08:36:36Z</time>
      </trkpt>
      <trkpt lat="44.83355" lon="1.41268">
        <ele>120.94075012207</ele>
        <time>2011-12-27T08:36:41Z</time>
      </trkpt>
      <trkpt lat="44.83371" lon="1.41262">
        <ele>120.94916534424</ele>
        <time>2011-12-27T08:36:47Z</time>
      </trkpt>
      <trkpt lat="44.83383" lon="1.41257">
        <ele>120.91634368897</ele>
        <time>2011-12-27T08:36:52Z</time>
      </trkpt>
      <trkpt lat="44.83398" lon="1.41258">
        <ele>121.15188598633</ele>
        <time>2011-12-27T08:36:57Z</time>
      </trkpt>
      <trkpt lat="44.83411" lon="1.41257">
        <ele>121.28279113769</ele>
        <time>2011-12-27T08:37:02Z</time>
      </trkpt>
      <trkpt lat="44.83428" lon="1.41254">
        <ele>121.4235458374</ele>
        <time>2011-12-27T08:37:08Z</time>
      </trkpt>
      <trkpt lat="44.83442" lon="1.41256">
        <ele>121.82231903076</ele>
        <time>2011-12-27T08:37:13Z</time>
      </trkpt>
      <trkpt lat="44.83459" lon="1.41262">
        <ele>122.37119293213</ele>
        <time>2011-12-27T08:37:19Z</time>
      </trkpt>
      <trkpt lat="44.83473" lon="1.41267">
        <ele>122.74035644531</ele>
        <time>2011-12-27T08:37:25Z</time>
      </trkpt>
      <trkpt lat="44.83487" lon="1.41263">
        <ele>122.92211914062</ele>
        <time>2011-12-27T08:37:30Z</time>
      </trkpt>
      <trkpt lat="44.83501" lon="1.41257">
        <ele>123.05768585205</ele>
        <time>2011-12-27T08:37:35Z</time>
      </trkpt>
      <trkpt lat="44.83515" lon="1.41251">
        <ele>122.46530914307</ele>
        <time>2011-12-27T08:37:40Z</time>
      </trkpt>
      <trkpt lat="44.83525" lon="1.41246">
        <ele>122.05331420898</ele>
        <time>2011-12-27T08:37:44Z</time>
      </trkpt>
      <trkpt lat="44.83535" lon="1.41246">
        <ele>121.71458435059</ele>
        <time>2011-12-27T08:37:49Z</time>
      </trkpt>
      <trkpt lat="44.83537" lon="1.41245">
        <ele>121.64006042481</ele>
        <time>2011-12-27T08:37:52Z</time>
      </trkpt>
      <trkpt lat="44.83546" lon="1.41243">
        <ele>121.28832244873</ele>
        <time>2011-12-27T08:37:57Z</time>
      </trkpt>
      <trkpt lat="44.83555" lon="1.41256">
        <ele>121.07871246338</ele>
        <time>2011-12-27T08:38:03Z</time>
      </trkpt>
      <trkpt lat="44.8356" lon="1.41278">
        <ele>121.17469787598</ele>
        <time>2011-12-27T08:38:09Z</time>
      </trkpt>
      <trkpt lat="44.8357" lon="1.41294">
        <ele>120.99546051025</ele>
        <time>2011-12-27T08:38:15Z</time>
      </trkpt>
      <trkpt lat="44.83584" lon="1.41294">
        <ele>120.50946807861</ele>
        <time>2011-12-27T08:38:20Z</time>
      </trkpt>
      <trkpt lat="44.83599" lon="1.41292">
        <ele>119.95062255859</ele>
        <time>2011-12-27T08:38:25Z</time>
      </trkpt>
      <trkpt lat="44.83616" lon="1.41291">
        <ele>119.31412506103</ele>
        <time>2011-12-27T08:38:31Z</time>
      </trkpt>
      <trkpt lat="44.8363" lon="1.4129">
        <ele>118.82335662842</ele>
        <time>2011-12-27T08:38:36Z</time>
      </trkpt>
      <trkpt lat="44.83644" lon="1.41288">
        <ele>118.33285522461</ele>
        <time>2011-12-27T08:38:41Z</time>
      </trkpt>
      <trkpt lat="44.83663" lon="1.41286">
        <ele>117.69774627685</ele>
        <time>2011-12-27T08:38:48Z</time>
      </trkpt>
      <trkpt lat="44.8368" lon="1.41289">
        <ele>117.3719329834</ele>
        <time>2011-12-27T08:38:54Z</time>
      </trkpt>
      <trkpt lat="44.83698" lon="1.41297">
        <ele>117.05950927734</ele>
        <time>2011-12-27T08:39:01Z</time>
      </trkpt>
      <trkpt lat="44.83712" lon="1.41306">
        <ele>116.774269104</ele>
        <time>2011-12-27T08:39:07Z</time>
      </trkpt>
      <trkpt lat="44.83725" lon="1.41316">
        <ele>116.51805877685</ele>
        <time>2011-12-27T08:39:12Z</time>
      </trkpt>
      <trkpt lat="44.83733" lon="1.41323">
        <ele>116.32765960693</ele>
        <time>2011-12-27T08:39:17Z</time>
      </trkpt>
      <trkpt lat="44.83742" lon="1.41332">
        <ele>116.10922241211</ele>
        <time>2011-12-27T08:39:22Z</time>
      </trkpt>
      <trkpt lat="44.83757" lon="1.41341">
        <ele>116.23889923096</ele>
        <time>2011-12-27T08:39:28Z</time>
      </trkpt>
      <trkpt lat="44.83767" lon="1.41345">
        <ele>116.55472564697</ele>
        <time>2011-12-27T08:39:32Z</time>
      </trkpt>
      <trkpt lat="44.83778" lon="1.41351">
        <ele>117.0504989624</ele>
        <time>2011-12-27T08:39:36Z</time>
      </trkpt>
      <trkpt lat="44.83789" lon="1.41354">
        <ele>117.49761199951</ele>
        <time>2011-12-27T08:39:40Z</time>
      </trkpt>
      <trkpt lat="44.83797" lon="1.41363">
        <ele>118.5651550293</ele>
        <time>2011-12-27T08:39:45Z</time>
      </trkpt>
      <trkpt lat="44.83801" lon="1.4138">
        <ele>120.17658233643</ele>
        <time>2011-12-27T08:39:51Z</time>
      </trkpt>
      <trkpt lat="44.83797" lon="1.41394">
        <ele>121.10554504394</ele>
        <time>2011-12-27T08:39:57Z</time>
      </trkpt>
      <trkpt lat="44.83791" lon="1.4141">
        <ele>121.90155792236</ele>
        <time>2011-12-27T08:40:02Z</time>
      </trkpt>
      <trkpt lat="44.83786" lon="1.41428">
        <ele>122.7848739624</ele>
        <time>2011-12-27T08:40:07Z</time>
      </trkpt>
      <trkpt lat="44.83783" lon="1.41443">
        <ele>123.48175048828</ele>
        <time>2011-12-27T08:40:11Z</time>
      </trkpt>
      <trkpt lat="44.83779" lon="1.41468">
        <ele>124.48093414307</ele>
        <time>2011-12-27T08:40:18Z</time>
      </trkpt>
      <trkpt lat="44.83775" lon="1.41487">
        <ele>124.83794403076</ele>
        <time>2011-12-27T08:40:23Z</time>
      </trkpt>
      <trkpt lat="44.83771" lon="1.41505">
        <ele>125.49296569824</ele>
        <time>2011-12-27T08:40:28Z</time>
      </trkpt>
      <trkpt lat="44.83765" lon="1.41523">
        <ele>127.18056488037</ele>
        <time>2011-12-27T08:40:34Z</time>
      </trkpt>
      <trkpt lat="44.83757" lon="1.41538">
        <ele>127.8298034668</ele>
        <time>2011-12-27T08:40:40Z</time>
      </trkpt>
      <trkpt lat="44.8375" lon="1.41551">
        <ele>128.50778198242</ele>
        <time>2011-12-27T08:40:45Z</time>
      </trkpt>
      <trkpt lat="44.83742" lon="1.41562">
        <ele>129.5643157959</ele>
        <time>2011-12-27T08:40:50Z</time>
      </trkpt>
      <trkpt lat="44.83733" lon="1.41577">
        <ele>130.56452941894</ele>
        <time>2011-12-27T08:40:55Z</time>
      </trkpt>
      <trkpt lat="44.83718" lon="1.41585">
        <ele>129.77882385254</ele>
        <time>2011-12-27T08:41:02Z</time>
      </trkpt>
      <trkpt lat="44.83706" lon="1.41595">
        <ele>130.01083374023</ele>
        <time>2011-12-27T08:41:08Z</time>
      </trkpt>
      <trkpt lat="44.83691" lon="1.41604">
        <ele>129.6025390625</ele>
        <time>2011-12-27T08:41:15Z</time>
      </trkpt>
      <trkpt lat="44.8368" lon="1.41611">
        <ele>129.32157897949</ele>
        <time>2011-12-27T08:41:20Z</time>
      </trkpt>
      <trkpt lat="44.83668" lon="1.41617">
        <ele>128.70141601562</ele>
        <time>2011-12-27T08:41:25Z</time>
      </trkpt>
      <trkpt lat="44.83657" lon="1.41623">
        <ele>128.6877746582</ele>
        <time>2011-12-27T08:41:30Z</time>
      </trkpt>
      <trkpt lat="44.83647" lon="1.41627">
        <ele>128.17279052734</ele>
        <time>2011-12-27T08:41:34Z</time>
      </trkpt>
      <trkpt lat="44.83631" lon="1.41638">
        <ele>127.84377288818</ele>
        <time>2011-12-27T08:41:41Z</time>
      </trkpt>
      <trkpt lat="44.83617" lon="1.41648">
        <ele>127.15711212158</ele>
        <time>2011-12-27T08:41:47Z</time>
      </trkpt>
      <trkpt lat="44.83603" lon="1.41664">
        <ele>126.22853088379</ele>
        <time>2011-12-27T08:41:53Z</time>
      </trkpt>
      <trkpt lat="44.8359" lon="1.41684">
        <ele>125.82623291016</ele>
        <time>2011-12-27T08:41:59Z</time>
      </trkpt>
      <trkpt lat="44.83583" lon="1.417">
        <ele>125.75003814697</ele>
        <time>2011-12-27T08:42:04Z</time>
      </trkpt>
      <trkpt lat="44.83574" lon="1.41721">
        <ele>126.74645233154</ele>
        <time>2011-12-27T08:42:11Z</time>
      </trkpt>
      <trkpt lat="44.8356" lon="1.41751">
        <ele>127.20687103272</ele>
        <time>2011-12-27T08:42:17Z</time>
      </trkpt>
      <trkpt lat="44.83549" lon="1.41771">
        <ele>126.68415832519</ele>
        <time>2011-12-27T08:42:22Z</time>
      </trkpt>
      <trkpt lat="44.83544" lon="1.41773">
        <ele>126.12826538086</ele>
        <time>2011-12-27T08:42:24Z</time>
      </trkpt>
      <trkpt lat="44.83541" lon="1.41789">
        <ele>126.36916351318</ele>
        <time>2011-12-27T08:42:28Z</time>
      </trkpt>
      <trkpt lat="44.83541" lon="1.41809">
        <ele>127.10001373291</ele>
        <time>2011-12-27T08:42:33Z</time>
      </trkpt>
      <trkpt lat="44.83537" lon="1.41826">
        <ele>127.11860656738</ele>
        <time>2011-12-27T08:42:38Z</time>
      </trkpt>
      <trkpt lat="44.8353" lon="1.41841">
        <ele>127.13777160644</ele>
        <time>2011-12-27T08:42:43Z</time>
      </trkpt>
      <trkpt lat="44.83523" lon="1.4186">
        <ele>127.26145172119</ele>
        <time>2011-12-27T08:42:49Z</time>
      </trkpt>
      <trkpt lat="44.83518" lon="1.41876">
        <ele>127.52891540527</ele>
        <time>2011-12-27T08:42:54Z</time>
      </trkpt>
      <trkpt lat="44.83511" lon="1.41894">
        <ele>127.52584075928</ele>
        <time>2011-12-27T08:43:00Z</time>
      </trkpt>
      <trkpt lat="44.835" lon="1.41918">
        <ele>127.03503417969</ele>
        <time>2011-12-27T08:43:08Z</time>
      </trkpt>
      <trkpt lat="44.83492" lon="1.41939">
        <ele>127.61888122559</ele>
        <time>2011-12-27T08:43:15Z</time>
      </trkpt>
      <trkpt lat="44.83485" lon="1.41959">
        <ele>127.952293396</ele>
        <time>2011-12-27T08:43:21Z</time>
      </trkpt>
      <trkpt lat="44.83483" lon="1.41967">
        <ele>128.21264648438</ele>
        <time>2011-12-27T08:43:24Z</time>
      </trkpt>
      <trkpt lat="44.83479" lon="1.41984">
        <ele>128.48132324219</ele>
        <time>2011-12-27T08:43:29Z</time>
      </trkpt>
      <trkpt lat="44.83478" lon="1.41987">
        <ele>128.55010986328</ele>
        <time>2011-12-27T08:43:30Z</time>
      </trkpt>
      <trkpt lat="44.83476" lon="1.42011">
        <ele>129.15525817871</ele>
        <time>2011-12-27T08:43:36Z</time>
      </trkpt>
      <trkpt lat="44.83477" lon="1.42021">
        <ele>129.67190551758</ele>
        <time>2011-12-27T08:43:39Z</time>
      </trkpt>
      <trkpt lat="44.8348" lon="1.42044">
        <ele>130.66407775879</ele>
        <time>2011-12-27T08:43:45Z</time>
      </trkpt>
      <trkpt lat="44.83484" lon="1.4206">
        <ele>131.60359191894</ele>
        <time>2011-12-27T08:43:51Z</time>
      </trkpt>
      <trkpt lat="44.83485" lon="1.4208">
        <ele>132.29060363769</ele>
        <time>2011-12-27T08:43:57Z</time>
      </trkpt>
      <trkpt lat="44.83488" lon="1.42094">
        <ele>132.73091125488</ele>
        <time>2011-12-27T08:44:01Z</time>
      </trkpt>
      <trkpt lat="44.83491" lon="1.42113">
        <ele>133.08036804199</ele>
        <time>2011-12-27T08:44:06Z</time>
      </trkpt>
      <trkpt lat="44.83492" lon="1.42139">
        <ele>133.19001770019</ele>
        <time>2011-12-27T08:44:11Z</time>
      </trkpt>
      <trkpt lat="44.83495" lon="1.42157">
        <ele>133.5080871582</ele>
        <time>2011-12-27T08:44:15Z</time>
      </trkpt>
      <trkpt lat="44.835" lon="1.42174">
        <ele>133.89738464356</ele>
        <time>2011-12-27T08:44:20Z</time>
      </trkpt>
      <trkpt lat="44.83503" lon="1.42191">
        <ele>134.470703125</ele>
        <time>2011-12-27T08:44:25Z</time>
      </trkpt>
      <trkpt lat="44.83503" lon="1.42206">
        <ele>134.52864074707</ele>
        <time>2011-12-27T08:44:29Z</time>
      </trkpt>
      <trkpt lat="44.83505" lon="1.4223">
        <ele>134.84498596191</ele>
        <time>2011-12-27T08:44:35Z</time>
      </trkpt>
      <trkpt lat="44.83504" lon="1.42254">
        <ele>134.41984558106</ele>
        <time>2011-12-27T08:44:40Z</time>
      </trkpt>
      <trkpt lat="44.83503" lon="1.42272">
        <ele>134.83285522461</ele>
        <time>2011-12-27T08:44:44Z</time>
      </trkpt>
      <trkpt lat="44.83503" lon="1.42295">
        <ele>135.57676696777</ele>
        <time>2011-12-27T08:44:50Z</time>
      </trkpt>
      <trkpt lat="44.83502" lon="1.42313">
        <ele>135.86798095703</ele>
        <time>2011-12-27T08:44:55Z</time>
      </trkpt>
      <trkpt lat="44.83503" lon="1.42333">
        <ele>137.08317565918</ele>
        <time>2011-12-27T08:45:00Z</time>
      </trkpt>
      <trkpt lat="44.83504" lon="1.42353">
        <ele>137.68588256836</ele>
        <time>2011-12-27T08:45:05Z</time>
      </trkpt>
      <trkpt lat="44.83505" lon="1.42371">
        <ele>138.64404296875</ele>
        <time>2011-12-27T08:45:10Z</time>
      </trkpt>
      <trkpt lat="44.83506" lon="1.42395">
        <ele>139.36186218262</ele>
        <time>2011-12-27T08:45:16Z</time>
      </trkpt>
      <trkpt lat="44.83505" lon="1.42415">
        <ele>139.60343933106</ele>
        <time>2011-12-27T08:45:21Z</time>
      </trkpt>
      <trkpt lat="44.83505" lon="1.42436">
        <ele>139.46231079102</ele>
        <time>2011-12-27T08:45:26Z</time>
      </trkpt>
      <trkpt lat="44.83504" lon="1.42457">
        <ele>138.66450500488</ele>
        <time>2011-12-27T08:45:31Z</time>
      </trkpt>
      <trkpt lat="44.83503" lon="1.42475">
        <ele>138.05587768555</ele>
        <time>2011-12-27T08:45:36Z</time>
      </trkpt>
      <trkpt lat="44.83506" lon="1.42497">
        <ele>138.60557556152</ele>
        <time>2011-12-27T08:45:42Z</time>
      </trkpt>
      <trkpt lat="44.83506" lon="1.425">
        <ele>138.65994262695</ele>
        <time>2011-12-27T08:45:43Z</time>
      </trkpt>
      <trkpt lat="44.83516" lon="1.42515">
        <ele>141.29539489746</ele>
        <time>2011-12-27T08:45:49Z</time>
      </trkpt>
      <trkpt lat="44.83518" lon="1.42518">
        <ele>141.73208618164</ele>
        <time>2011-12-27T08:45:50Z</time>
      </trkpt>
      <trkpt lat="44.83529" lon="1.42529">
        <ele>144.00094604492</ele>
        <time>2011-12-27T08:45:55Z</time>
      </trkpt>
      <trkpt lat="44.83531" lon="1.42533">
        <ele>144.37368774414</ele>
        <time>2011-12-27T08:45:57Z</time>
      </trkpt>
      <trkpt lat="44.83541" lon="1.42546">
        <ele>145.83497619629</ele>
        <time>2011-12-27T08:46:03Z</time>
      </trkpt>
      <trkpt lat="44.83553" lon="1.42557">
        <ele>147.44247436523</ele>
        <time>2011-12-27T08:46:08Z</time>
      </trkpt>
      <trkpt lat="44.83558" lon="1.42565">
        <ele>147.80709838867</ele>
        <time>2011-12-27T08:46:11Z</time>
      </trkpt>
      <trkpt lat="44.83565" lon="1.4258">
        <ele>147.61878967285</ele>
        <time>2011-12-27T08:46:16Z</time>
      </trkpt>
      <trkpt lat="44.83572" lon="1.42601">
        <ele>146.9794921875</ele>
        <time>2011-12-27T08:46:22Z</time>
      </trkpt>
      <trkpt lat="44.8358" lon="1.42616">
        <ele>146.56739807129</ele>
        <time>2011-12-27T08:46:27Z</time>
      </trkpt>
      <trkpt lat="44.83581" lon="1.4262">
        <ele>146.3039855957</ele>
        <time>2011-12-27T08:46:28Z</time>
      </trkpt>
      <trkpt lat="44.8359" lon="1.4264">
        <ele>146.31829833984</ele>
        <time>2011-12-27T08:46:34Z</time>
      </trkpt>
      <trkpt lat="44.8359" lon="1.42643">
        <ele>146.19355773926</ele>
        <time>2011-12-27T08:46:35Z</time>
      </trkpt>
      <trkpt lat="44.83596" lon="1.42661">
        <ele>145.78688049316</ele>
        <time>2011-12-27T08:46:40Z</time>
      </trkpt>
      <trkpt lat="44.836" lon="1.42679">
        <ele>145.70597839356</ele>
        <time>2011-12-27T08:46:45Z</time>
      </trkpt>
      <trkpt lat="44.83607" lon="1.427">
        <ele>146.19454956055</ele>
        <time>2011-12-27T08:46:51Z</time>
      </trkpt>
      <trkpt lat="44.83612" lon="1.42715">
        <ele>146.52848815918</ele>
        <time>2011-12-27T08:46:56Z</time>
      </trkpt>
      <trkpt lat="44.83617" lon="1.42732">
        <ele>146.37808227539</ele>
        <time>2011-12-27T08:47:01Z</time>
      </trkpt>
      <trkpt lat="44.83617" lon="1.42746">
        <ele>145.5505065918</ele>
        <time>2011-12-27T08:47:05Z</time>
      </trkpt>
      <trkpt lat="44.83612" lon="1.42762">
        <ele>144.24826049805</ele>
        <time>2011-12-27T08:47:10Z</time>
      </trkpt>
      <trkpt lat="44.8361" lon="1.42782">
        <ele>143.37078857422</ele>
        <time>2011-12-27T08:47:15Z</time>
      </trkpt>
      <trkpt lat="44.83603" lon="1.42802">
        <ele>141.94853210449</ele>
        <time>2011-12-27T08:47:21Z</time>
      </trkpt>
      <trkpt lat="44.83591" lon="1.42818">
        <ele>140.16618347168</ele>
        <time>2011-12-27T08:47:27Z</time>
      </trkpt>
      <trkpt lat="44.83583" lon="1.42828">
        <ele>139.09339904785</ele>
        <time>2011-12-27T08:47:32Z</time>
      </trkpt>
      <trkpt lat="44.83577" lon="1.42839">
        <ele>139.84898376465</ele>
        <time>2011-12-27T08:47:36Z</time>
      </trkpt>
      <trkpt lat="44.83569" lon="1.42846">
        <ele>140.95762634277</ele>
        <time>2011-12-27T08:47:41Z</time>
      </trkpt>
      <trkpt lat="44.83561" lon="1.42858">
        <ele>142.07809448242</ele>
        <time>2011-12-27T08:47:45Z</time>
      </trkpt>
      <trkpt lat="44.83551" lon="1.4287">
        <ele>143.35578918457</ele>
        <time>2011-12-27T08:47:50Z</time>
      </trkpt>
      <trkpt lat="44.83539" lon="1.42883">
        <ele>144.65982055664</ele>
        <time>2011-12-27T08:47:56Z</time>
      </trkpt>
      <trkpt lat="44.83536" lon="1.42886">
        <ele>144.98112487793</ele>
        <time>2011-12-27T08:47:58Z</time>
      </trkpt>
      <trkpt lat="44.8353" lon="1.42881">
        <ele>145.32806396484</ele>
        <time>2011-12-27T08:48:02Z</time>
      </trkpt>
      <trkpt lat="44.83524" lon="1.42865">
        <ele>145.44723510742</ele>
        <time>2011-12-27T08:48:07Z</time>
      </trkpt>
      <trkpt lat="44.8352" lon="1.42849">
        <ele>145.42057800293</ele>
        <time>2011-12-27T08:48:12Z</time>
      </trkpt>
      <trkpt lat="44.83517" lon="1.42835">
        <ele>145.36302185059</ele>
        <time>2011-12-27T08:48:16Z</time>
      </trkpt>
      <trkpt lat="44.83512" lon="1.42815">
        <ele>146.05427551269</ele>
        <time>2011-12-27T08:48:22Z</time>
      </trkpt>
      <trkpt lat="44.83508" lon="1.42794">
        <ele>146.70658874512</ele>
        <time>2011-12-27T08:48:28Z</time>
      </trkpt>
      <trkpt lat="44.83502" lon="1.42776">
        <ele>147.47204589844</ele>
        <time>2011-12-27T08:48:33Z</time>
      </trkpt>
      <trkpt lat="44.83496" lon="1.42756">
        <ele>148.19340515137</ele>
        <time>2011-12-27T08:48:39Z</time>
      </trkpt>
      <trkpt lat="44.83492" lon="1.42741">
        <ele>148.03434753418</ele>
        <time>2011-12-27T08:48:44Z</time>
      </trkpt>
      <trkpt lat="44.83486" lon="1.42719">
        <ele>147.10066223144</ele>
        <time>2011-12-27T08:48:50Z</time>
      </trkpt>
      <trkpt lat="44.83482" lon="1.42702">
        <ele>146.32867431641</ele>
        <time>2011-12-27T08:48:55Z</time>
      </trkpt>
      <trkpt lat="44.83475" lon="1.42681">
        <ele>145.39547729492</ele>
        <time>2011-12-27T08:49:01Z</time>
      </trkpt>
      <trkpt lat="44.83466" lon="1.42662">
        <ele>144.69775390625</ele>
        <time>2011-12-27T08:49:07Z</time>
      </trkpt>
      <trkpt lat="44.83456" lon="1.42643">
        <ele>144.05270385742</ele>
        <time>2011-12-27T08:49:13Z</time>
      </trkpt>
      <trkpt lat="44.8344" lon="1.42619">
        <ele>143.30625915527</ele>
        <time>2011-12-27T08:49:21Z</time>
      </trkpt>
      <trkpt lat="44.83428" lon="1.426">
        <ele>142.59982299805</ele>
        <time>2011-12-27T08:49:27Z</time>
      </trkpt>
      <trkpt lat="44.8342" lon="1.42584">
        <ele>141.86930847168</ele>
        <time>2011-12-27T08:49:32Z</time>
      </trkpt>
      <trkpt lat="44.83413" lon="1.42565">
        <ele>140.64248657227</ele>
        <time>2011-12-27T08:49:37Z</time>
      </trkpt>
      <trkpt lat="44.83406" lon="1.42544">
        <ele>139.2848815918</ele>
        <time>2011-12-27T08:49:43Z</time>
      </trkpt>
      <trkpt lat="44.83397" lon="1.42518">
        <ele>137.97149658203</ele>
        <time>2011-12-27T08:49:50Z</time>
      </trkpt>
      <trkpt lat="44.83385" lon="1.425">
        <ele>137.67549133301</ele>
        <time>2011-12-27T08:49:56Z</time>
      </trkpt>
      <trkpt lat="44.83374" lon="1.42486">
        <ele>137.87469482422</ele>
        <time>2011-12-27T08:50:01Z</time>
      </trkpt>
      <trkpt lat="44.83366" lon="1.42472">
        <ele>138.02415466309</ele>
        <time>2011-12-27T08:50:06Z</time>
      </trkpt>
      <trkpt lat="44.83357" lon="1.42456">
        <ele>138.10838317871</ele>
        <time>2011-12-27T08:50:11Z</time>
      </trkpt>
      <trkpt lat="44.83351" lon="1.4244">
        <ele>138.02268981934</ele>
        <time>2011-12-27T08:50:16Z</time>
      </trkpt>
      <trkpt lat="44.83347" lon="1.42426">
        <ele>137.94482421875</ele>
        <time>2011-12-27T08:50:20Z</time>
      </trkpt>
      <trkpt lat="44.83341" lon="1.42402">
        <ele>137.65293884277</ele>
        <time>2011-12-27T08:50:27Z</time>
      </trkpt>
      <trkpt lat="44.83337" lon="1.42387">
        <ele>137.50531005859</ele>
        <time>2011-12-27T08:50:31Z</time>
      </trkpt>
      <trkpt lat="44.83333" lon="1.4237">
        <ele>137.32521057129</ele>
        <time>2011-12-27T08:50:36Z</time>
      </trkpt>
      <trkpt lat="44.83326" lon="1.42351">
        <ele>137.08647155762</ele>
        <time>2011-12-27T08:50:41Z</time>
      </trkpt>
      <trkpt lat="44.83322" lon="1.42334">
        <ele>136.72866821289</ele>
        <time>2011-12-27T08:50:46Z</time>
      </trkpt>
      <trkpt lat="44.83315" lon="1.42318">
        <ele>136.47471618652</ele>
        <time>2011-12-27T08:50:51Z</time>
      </trkpt>
      <trkpt lat="44.83309" lon="1.42299">
        <ele>135.96737670898</ele>
        <time>2011-12-27T08:50:56Z</time>
      </trkpt>
      <trkpt lat="44.83307" lon="1.42279">
        <ele>135.19958496094</ele>
        <time>2011-12-27T08:51:01Z</time>
      </trkpt>
      <trkpt lat="44.83306" lon="1.42256">
        <ele>134.23544311523</ele>
        <time>2011-12-27T08:51:07Z</time>
      </trkpt>
      <trkpt lat="44.83306" lon="1.42231">
        <ele>132.53350830078</ele>
        <time>2011-12-27T08:51:13Z</time>
      </trkpt>
      <trkpt lat="44.83305" lon="1.42211">
        <ele>131.10026550293</ele>
        <time>2011-12-27T08:51:18Z</time>
      </trkpt>
      <trkpt lat="44.83298" lon="1.4219">
        <ele>129.68748474121</ele>
        <time>2011-12-27T08:51:23Z</time>
      </trkpt>
      <trkpt lat="44.83291" lon="1.42174">
        <ele>128.62142944336</ele>
        <time>2011-12-27T08:51:27Z</time>
      </trkpt>
      <trkpt lat="44.83281" lon="1.42155">
        <ele>127.91096496582</ele>
        <time>2011-12-27T08:51:33Z</time>
      </trkpt>
      <trkpt lat="44.83273" lon="1.42142">
        <ele>127.82858276367</ele>
        <time>2011-12-27T08:51:37Z</time>
      </trkpt>
      <trkpt lat="44.83266" lon="1.42129">
        <ele>127.79669189453</ele>
        <time>2011-12-27T08:51:41Z</time>
      </trkpt>
      <trkpt lat="44.83258" lon="1.42112">
        <ele>127.89405822754</ele>
        <time>2011-12-27T08:51:46Z</time>
      </trkpt>
      <trkpt lat="44.83247" lon="1.42091">
        <ele>128.18284606934</ele>
        <time>2011-12-27T08:51:52Z</time>
      </trkpt>
      <trkpt lat="44.83243" lon="1.42086">
        <ele>128.27963256836</ele>
        <time>2011-12-27T08:51:54Z</time>
      </trkpt>
      <trkpt lat="44.83227" lon="1.42084">
        <ele>128.82388305664</ele>
        <time>2011-12-27T08:52:00Z</time>
      </trkpt>
      <trkpt lat="44.83217" lon="1.42087">
        <ele>129.17060852051</ele>
        <time>2011-12-27T08:52:04Z</time>
      </trkpt>
      <trkpt lat="44.83204" lon="1.42087">
        <ele>129.61614990234</ele>
        <time>2011-12-27T08:52:09Z</time>
      </trkpt>
      <trkpt lat="44.83187" lon="1.4209">
        <ele>130.14605712891</ele>
        <time>2011-12-27T08:52:15Z</time>
      </trkpt>
      <trkpt lat="44.83174" lon="1.42096">
        <ele>130.47485351562</ele>
        <time>2011-12-27T08:52:20Z</time>
      </trkpt>
      <trkpt lat="44.83161" lon="1.42105">
        <ele>130.91058349609</ele>
        <time>2011-12-27T08:52:25Z</time>
      </trkpt>
      <trkpt lat="44.83147" lon="1.42108">
        <ele>131.88006591797</ele>
        <time>2011-12-27T08:52:30Z</time>
      </trkpt>
      <trkpt lat="44.83139" lon="1.42101">
        <ele>132.80426025391</ele>
        <time>2011-12-27T08:52:34Z</time>
      </trkpt>
      <trkpt lat="44.8313" lon="1.4209">
        <ele>134.16276550293</ele>
        <time>2011-12-27T08:52:40Z</time>
      </trkpt>
      <trkpt lat="44.83121" lon="1.42077">
        <ele>135.61779785156</ele>
        <time>2011-12-27T08:52:46Z</time>
      </trkpt>
      <trkpt lat="44.83112" lon="1.42063">
        <ele>137.24342346191</ele>
        <time>2011-12-27T08:52:53Z</time>
      </trkpt>
      <trkpt lat="44.83102" lon="1.4205">
        <ele>138.78265380859</ele>
        <time>2011-12-27T08:52:59Z</time>
      </trkpt>
      <trkpt lat="44.83093" lon="1.4204">
        <ele>140.1399230957</ele>
        <time>2011-12-27T08:53:04Z</time>
      </trkpt>
      <trkpt lat="44.83083" lon="1.42027">
        <ele>141.7283782959</ele>
        <time>2011-12-27T08:53:10Z</time>
      </trkpt>
      <trkpt lat="44.83075" lon="1.42014">
        <ele>143.35595703125</ele>
        <time>2011-12-27T08:53:16Z</time>
      </trkpt>
      <trkpt lat="44.8307" lon="1.42003">
        <ele>144.43096923828</ele>
        <time>2011-12-27T08:53:21Z</time>
      </trkpt>
      <trkpt lat="44.83063" lon="1.41991">
        <ele>146.03016662598</ele>
        <time>2011-12-27T08:53:25Z</time>
      </trkpt>
      <trkpt lat="44.83058" lon="1.41984">
        <ele>147.10301208496</ele>
        <time>2011-12-27T08:53:28Z</time>
      </trkpt>
      <trkpt lat="44.83049" lon="1.41969">
        <ele>149.18391418457</ele>
        <time>2011-12-27T08:53:35Z</time>
      </trkpt>
      <trkpt lat="44.83047" lon="1.41967">
        <ele>149.5207824707</ele>
        <time>2011-12-27T08:53:36Z</time>
      </trkpt>
      <trkpt lat="44.8304" lon="1.41957">
        <ele>151.09593200684</ele>
        <time>2011-12-27T08:53:41Z</time>
      </trkpt>
      <trkpt lat="44.83028" lon="1.41943">
        <ele>153.54257202148</ele>
        <time>2011-12-27T08:53:47Z</time>
      </trkpt>
      <trkpt lat="44.8302" lon="1.41934">
        <ele>155.23013305664</ele>
        <time>2011-12-27T08:53:52Z</time>
      </trkpt>
      <trkpt lat="44.8301" lon="1.41927">
        <ele>156.92120361328</ele>
        <time>2011-12-27T08:53:57Z</time>
      </trkpt>
      <trkpt lat="44.83002" lon="1.41918">
        <ele>158.56425476074</ele>
        <time>2011-12-27T08:54:02Z</time>
      </trkpt>
      <trkpt lat="44.82991" lon="1.41911">
        <ele>160.38624572754</ele>
        <time>2011-12-27T08:54:08Z</time>
      </trkpt>
      <trkpt lat="44.82982" lon="1.41903">
        <ele>161.95983886719</ele>
        <time>2011-12-27T08:54:14Z</time>
      </trkpt>
      <trkpt lat="44.82972" lon="1.41896">
        <ele>163.54052734375</ele>
        <time>2011-12-27T08:54:20Z</time>
      </trkpt>
      <trkpt lat="44.82962" lon="1.41885">
        <ele>165.19934082031</ele>
        <time>2011-12-27T08:54:26Z</time>
      </trkpt>
      <trkpt lat="44.82955" lon="1.41874">
        <ele>166.46235656738</ele>
        <time>2011-12-27T08:54:31Z</time>
      </trkpt>
      <trkpt lat="44.82947" lon="1.41862">
        <ele>167.77261352539</ele>
        <time>2011-12-27T08:54:36Z</time>
      </trkpt>
      <trkpt lat="44.8294" lon="1.41854">
        <ele>168.86953735352</ele>
        <time>2011-12-27T08:54:41Z</time>
      </trkpt>
      <trkpt lat="44.82934" lon="1.41845">
        <ele>169.77809143066</ele>
        <time>2011-12-27T08:54:45Z</time>
      </trkpt>
      <trkpt lat="44.82921" lon="1.4183">
        <ele>171.35929870606</ele>
        <time>2011-12-27T08:54:53Z</time>
      </trkpt>
      <trkpt lat="44.82911" lon="1.4182">
        <ele>171.14201354981</ele>
        <time>2011-12-27T08:54:59Z</time>
      </trkpt>
      <trkpt lat="44.829" lon="1.41824">
        <ele>171.30256652832</ele>
        <time>2011-12-27T08:55:05Z</time>
      </trkpt>
      <trkpt lat="44.82888" lon="1.41833">
        <ele>171.95831298828</ele>
        <time>2011-12-27T08:55:11Z</time>
      </trkpt>
      <trkpt lat="44.82877" lon="1.41841">
        <ele>172.03352355957</ele>
        <time>2011-12-27T08:55:16Z</time>
      </trkpt>
      <trkpt lat="44.82864" lon="1.4185">
        <ele>172.23263549805</ele>
        <time>2011-12-27T08:55:22Z</time>
      </trkpt>
      <trkpt lat="44.82853" lon="1.41857">
        <ele>172.52145385742</ele>
        <time>2011-12-27T08:55:27Z</time>
      </trkpt>
      <trkpt lat="44.8284" lon="1.41866">
        <ele>172.99604797363</ele>
        <time>2011-12-27T08:55:33Z</time>
      </trkpt>
      <trkpt lat="44.82825" lon="1.41874">
        <ele>173.16130065918</ele>
        <time>2011-12-27T08:55:40Z</time>
      </trkpt>
      <trkpt lat="44.82813" lon="1.41882">
        <ele>173.21136474609</ele>
        <time>2011-12-27T08:55:46Z</time>
      </trkpt>
      <trkpt lat="44.82799" lon="1.41889">
        <ele>173.45640563965</ele>
        <time>2011-12-27T08:55:52Z</time>
      </trkpt>
      <trkpt lat="44.82784" lon="1.41898">
        <ele>174.13442993164</ele>
        <time>2011-12-27T08:55:59Z</time>
      </trkpt>
      <trkpt lat="44.82771" lon="1.41905">
        <ele>175.00170898438</ele>
        <time>2011-12-27T08:56:05Z</time>
      </trkpt>
      <trkpt lat="44.82757" lon="1.41912">
        <ele>176.18881225586</ele>
        <time>2011-12-27T08:56:11Z</time>
      </trkpt>
      <trkpt lat="44.82744" lon="1.41921">
        <ele>177.23985290527</ele>
        <time>2011-12-27T08:56:17Z</time>
      </trkpt>
      <trkpt lat="44.82733" lon="1.4193">
        <ele>177.72692871094</ele>
        <time>2011-12-27T08:56:22Z</time>
      </trkpt>
      <trkpt lat="44.8272" lon="1.41941">
        <ele>178.49369812012</ele>
        <time>2011-12-27T08:56:28Z</time>
      </trkpt>
      <trkpt lat="44.82706" lon="1.41952">
        <ele>179.33378601074</ele>
        <time>2011-12-27T08:56:35Z</time>
      </trkpt>
      <trkpt lat="44.82693" lon="1.41962">
        <ele>180.30470275879</ele>
        <time>2011-12-27T08:56:41Z</time>
      </trkpt>
      <trkpt lat="44.82682" lon="1.41965">
        <ele>180.69856262207</ele>
        <time>2011-12-27T08:56:46Z</time>
      </trkpt>
      <trkpt lat="44.82667" lon="1.41976">
        <ele>181.98623657227</ele>
        <time>2011-12-27T08:56:52Z</time>
      </trkpt>
      <trkpt lat="44.82652" lon="1.41985">
        <ele>181.77337646484</ele>
        <time>2011-12-27T08:56:58Z</time>
      </trkpt>
      <trkpt lat="44.8264" lon="1.41994">
        <ele>181.86163330078</ele>
        <time>2011-12-27T08:57:03Z</time>
      </trkpt>
      <trkpt lat="44.82631" lon="1.42005">
        <ele>181.89697265625</ele>
        <time>2011-12-27T08:57:08Z</time>
      </trkpt>
      <trkpt lat="44.82623" lon="1.42018">
        <ele>181.73522949219</ele>
        <time>2011-12-27T08:57:13Z</time>
      </trkpt>
      <trkpt lat="44.82611" lon="1.42035">
        <ele>181.78929138184</ele>
        <time>2011-12-27T08:57:19Z</time>
      </trkpt>
      <trkpt lat="44.82604" lon="1.42044">
        <ele>181.97546386719</ele>
        <time>2011-12-27T08:57:23Z</time>
      </trkpt>
      <trkpt lat="44.82593" lon="1.42058">
        <ele>182.51089477539</ele>
        <time>2011-12-27T08:57:29Z</time>
      </trkpt>
      <trkpt lat="44.82583" lon="1.42072">
        <ele>183.34170532227</ele>
        <time>2011-12-27T08:57:35Z</time>
      </trkpt>
      <trkpt lat="44.82574" lon="1.42085">
        <ele>184.61099243164</ele>
        <time>2011-12-27T08:57:40Z</time>
      </trkpt>
      <trkpt lat="44.82566" lon="1.42096">
        <ele>184.67585754394</ele>
        <time>2011-12-27T08:57:44Z</time>
      </trkpt>
      <trkpt lat="44.82555" lon="1.42112">
        <ele>184.79585266113</ele>
        <time>2011-12-27T08:57:50Z</time>
      </trkpt>
      <trkpt lat="44.82548" lon="1.42124">
        <ele>184.80133056641</ele>
        <time>2011-12-27T08:57:54Z</time>
      </trkpt>
      <trkpt lat="44.8254" lon="1.42136">
        <ele>184.91665649414</ele>
        <time>2011-12-27T08:57:59Z</time>
      </trkpt>
      <trkpt lat="44.82531" lon="1.42151">
        <ele>185.06561279297</ele>
        <time>2011-12-27T08:58:05Z</time>
      </trkpt>
      <trkpt lat="44.82519" lon="1.42166">
        <ele>185.45915222168</ele>
        <time>2011-12-27T08:58:11Z</time>
      </trkpt>
      <trkpt lat="44.82505" lon="1.42182">
        <ele>184.43074035644</ele>
        <time>2011-12-27T08:58:17Z</time>
      </trkpt>
      <trkpt lat="44.82493" lon="1.42196">
        <ele>183.40312194824</ele>
        <time>2011-12-27T08:58:22Z</time>
      </trkpt>
      <trkpt lat="44.82479" lon="1.42217">
        <ele>181.81274414062</ele>
        <time>2011-12-27T08:58:29Z</time>
      </trkpt>
      <trkpt lat="44.82468" lon="1.42234">
        <ele>180.51934814453</ele>
        <time>2011-12-27T08:58:35Z</time>
      </trkpt>
      <trkpt lat="44.82457" lon="1.42252">
        <ele>179.42141723633</ele>
        <time>2011-12-27T08:58:41Z</time>
      </trkpt>
      <trkpt lat="44.82449" lon="1.42266">
        <ele>178.98516845703</ele>
        <time>2011-12-27T08:58:46Z</time>
      </trkpt>
      <trkpt lat="44.82445" lon="1.42277">
        <ele>178.4621887207</ele>
        <time>2011-12-27T08:58:49Z</time>
      </trkpt>
      <trkpt lat="44.82434" lon="1.42291">
        <ele>178.43783569336</ele>
        <time>2011-12-27T08:58:55Z</time>
      </trkpt>
      <trkpt lat="44.82426" lon="1.42296">
        <ele>178.96461486816</ele>
        <time>2011-12-27T08:58:59Z</time>
      </trkpt>
      <trkpt lat="44.82419" lon="1.42302">
        <ele>179.38288879394</ele>
        <time>2011-12-27T08:59:03Z</time>
      </trkpt>
      <trkpt lat="44.82405" lon="1.42311">
        <ele>177.87512207031</ele>
        <time>2011-12-27T08:59:09Z</time>
      </trkpt>
      <trkpt lat="44.82391" lon="1.42323">
        <ele>175.63496398926</ele>
        <time>2011-12-27T08:59:15Z</time>
      </trkpt>
      <trkpt lat="44.82383" lon="1.42336">
        <ele>174.12705993652</ele>
        <time>2011-12-27T08:59:19Z</time>
      </trkpt>
      <trkpt lat="44.82372" lon="1.42352">
        <ele>173.09019470215</ele>
        <time>2011-12-27T08:59:24Z</time>
      </trkpt>
      <trkpt lat="44.82366" lon="1.42366">
        <ele>172.61413574219</ele>
        <time>2011-12-27T08:59:28Z</time>
      </trkpt>
      <trkpt lat="44.82358" lon="1.42387">
        <ele>172.20957946777</ele>
        <time>2011-12-27T08:59:33Z</time>
      </trkpt>
      <trkpt lat="44.82351" lon="1.42408">
        <ele>172.13487243652</ele>
        <time>2011-12-27T08:59:38Z</time>
      </trkpt>
      <trkpt lat="44.82343" lon="1.42424">
        <ele>172.51107788086</ele>
        <time>2011-12-27T08:59:43Z</time>
      </trkpt>
      <trkpt lat="44.82337" lon="1.42445">
        <ele>173.66163635254</ele>
        <time>2011-12-27T08:59:49Z</time>
      </trkpt>
      <trkpt lat="44.8233" lon="1.4247">
        <ele>174.63667297363</ele>
        <time>2011-12-27T08:59:56Z</time>
      </trkpt>
      <trkpt lat="44.82326" lon="1.42491">
        <ele>175.14021301269</ele>
        <time>2011-12-27T09:00:02Z</time>
      </trkpt>
      <trkpt lat="44.82322" lon="1.42512">
        <ele>175.37950134277</ele>
        <time>2011-12-27T09:00:08Z</time>
      </trkpt>
      <trkpt lat="44.82317" lon="1.42532">
        <ele>175.05477905273</ele>
        <time>2011-12-27T09:00:14Z</time>
      </trkpt>
      <trkpt lat="44.82313" lon="1.42549">
        <ele>175.04508972168</ele>
        <time>2011-12-27T09:00:19Z</time>
      </trkpt>
      <trkpt lat="44.82309" lon="1.42566">
        <ele>175.13520812988</ele>
        <time>2011-12-27T09:00:24Z</time>
      </trkpt>
      <trkpt lat="44.82305" lon="1.42589">
        <ele>175.33639526367</ele>
        <time>2011-12-27T09:00:30Z</time>
      </trkpt>
      <trkpt lat="44.823" lon="1.42614">
        <ele>175.29472351074</ele>
        <time>2011-12-27T09:00:37Z</time>
      </trkpt>
      <trkpt lat="44.82298" lon="1.42632">
        <ele>175.36253356934</ele>
        <time>2011-12-27T09:00:42Z</time>
      </trkpt>
      <trkpt lat="44.82293" lon="1.4265">
        <ele>175.20002746582</ele>
        <time>2011-12-27T09:00:47Z</time>
      </trkpt>
      <trkpt lat="44.82283" lon="1.42665">
        <ele>174.57389831543</ele>
        <time>2011-12-27T09:00:53Z</time>
      </trkpt>
      <trkpt lat="44.82271" lon="1.4268">
        <ele>174.53009033203</ele>
        <time>2011-12-27T09:00:59Z</time>
      </trkpt>
      <trkpt lat="44.82263" lon="1.42688">
        <ele>174.41676330566</ele>
        <time>2011-12-27T09:01:03Z</time>
      </trkpt>
      <trkpt lat="44.82254" lon="1.42699">
        <ele>174.45272827148</ele>
        <time>2011-12-27T09:01:08Z</time>
      </trkpt>
      <trkpt lat="44.82243" lon="1.42709">
        <ele>174.04216003418</ele>
        <time>2011-12-27T09:01:13Z</time>
      </trkpt>
      <trkpt lat="44.82232" lon="1.42718">
        <ele>173.01708984375</ele>
        <time>2011-12-27T09:01:19Z</time>
      </trkpt>
      <trkpt lat="44.82222" lon="1.42723">
        <ele>171.91091918945</ele>
        <time>2011-12-27T09:01:24Z</time>
      </trkpt>
      <trkpt lat="44.82212" lon="1.42726">
        <ele>170.51618957519</ele>
        <time>2011-12-27T09:01:29Z</time>
      </trkpt>
      <trkpt lat="44.82207" lon="1.42727">
        <ele>169.94818115234</ele>
        <time>2011-12-27T09:01:31Z</time>
      </trkpt>
      <trkpt lat="44.82193" lon="1.42726">
        <ele>167.49423217773</ele>
        <time>2011-12-27T09:01:38Z</time>
      </trkpt>
      <trkpt lat="44.82179" lon="1.42728">
        <ele>165.42630004883</ele>
        <time>2011-12-27T09:01:44Z</time>
      </trkpt>
      <trkpt lat="44.82166" lon="1.42731">
        <ele>163.66024780273</ele>
        <time>2011-12-27T09:01:50Z</time>
      </trkpt>
      <trkpt lat="44.82153" lon="1.42729">
        <ele>163.70051574707</ele>
        <time>2011-12-27T09:01:55Z</time>
      </trkpt>
      <trkpt lat="44.8214" lon="1.42719">
        <ele>163.34307861328</ele>
        <time>2011-12-27T09:02:01Z</time>
      </trkpt>
      <trkpt lat="44.82138" lon="1.42703">
        <ele>162.60589599609</ele>
        <time>2011-12-27T09:02:05Z</time>
      </trkpt>
      <trkpt lat="44.82132" lon="1.42688">
        <ele>162.10688781738</ele>
        <time>2011-12-27T09:02:10Z</time>
      </trkpt>
      <trkpt lat="44.82125" lon="1.42673">
        <ele>161.75155639648</ele>
        <time>2011-12-27T09:02:15Z</time>
      </trkpt>
      <trkpt lat="44.82115" lon="1.4266">
        <ele>162.08006286621</ele>
        <time>2011-12-27T09:02:20Z</time>
      </trkpt>
      <trkpt lat="44.82101" lon="1.42654">
        <ele>162.90292358398</ele>
        <time>2011-12-27T09:02:26Z</time>
      </trkpt>
      <trkpt lat="44.82092" lon="1.42649">
        <ele>163.48756408691</ele>
        <time>2011-12-27T09:02:31Z</time>
      </trkpt>
      <trkpt lat="44.82083" lon="1.42643">
        <ele>164.00624084473</ele>
        <time>2011-12-27T09:02:36Z</time>
      </trkpt>
      <trkpt lat="44.82072" lon="1.42638">
        <ele>164.36485290527</ele>
        <time>2011-12-27T09:02:42Z</time>
      </trkpt>
      <trkpt lat="44.82061" lon="1.42632">
        <ele>164.77032470703</ele>
        <time>2011-12-27T09:02:48Z</time>
      </trkpt>
      <trkpt lat="44.82047" lon="1.42628">
        <ele>165.29371643066</ele>
        <time>2011-12-27T09:02:55Z</time>
      </trkpt>
      <trkpt lat="44.82033" lon="1.42624">
        <ele>165.81893920898</ele>
        <time>2011-12-27T09:03:01Z</time>
      </trkpt>
      <trkpt lat="44.82021" lon="1.42621">
        <ele>166.30041503906</ele>
        <time>2011-12-27T09:03:06Z</time>
      </trkpt>
      <trkpt lat="44.8201" lon="1.42618">
        <ele>166.76856994629</ele>
        <time>2011-12-27T09:03:11Z</time>
      </trkpt>
      <trkpt lat="44.81997" lon="1.42611">
        <ele>167.4850769043</ele>
        <time>2011-12-27T09:03:17Z</time>
      </trkpt>
      <trkpt lat="44.81986" lon="1.42601">
        <ele>168.09623718262</ele>
        <time>2011-12-27T09:03:22Z</time>
      </trkpt>
      <trkpt lat="44.81973" lon="1.42591">
        <ele>168.79904174805</ele>
        <time>2011-12-27T09:03:28Z</time>
      </trkpt>
      <trkpt lat="44.81964" lon="1.42581">
        <ele>169.28544616699</ele>
        <time>2011-12-27T09:03:33Z</time>
      </trkpt>
      <trkpt lat="44.81958" lon="1.42562">
        <ele>169.53433227539</ele>
        <time>2011-12-27T09:03:40Z</time>
      </trkpt>
      <trkpt lat="44.81955" lon="1.42534">
        <ele>169.74133300781</ele>
        <time>2011-12-27T09:03:48Z</time>
      </trkpt>
      <trkpt lat="44.81955" lon="1.42507">
        <ele>169.79977416992</ele>
        <time>2011-12-27T09:03:55Z</time>
      </trkpt>
      <trkpt lat="44.81956" lon="1.4249">
        <ele>170.09042358398</ele>
        <time>2011-12-27T09:04:00Z</time>
      </trkpt>
      <trkpt lat="44.81959" lon="1.42469">
        <ele>170.72569274902</ele>
        <time>2011-12-27T09:04:06Z</time>
      </trkpt>
      <trkpt lat="44.81962" lon="1.42448">
        <ele>171.25956726074</ele>
        <time>2011-12-27T09:04:12Z</time>
      </trkpt>
      <trkpt lat="44.81965" lon="1.42432">
        <ele>171.62475585938</ele>
        <time>2011-12-27T09:04:17Z</time>
      </trkpt>
      <trkpt lat="44.81968" lon="1.42412">
        <ele>171.95721435547</ele>
        <time>2011-12-27T09:04:23Z</time>
      </trkpt>
      <trkpt lat="44.81971" lon="1.42395">
        <ele>172.05807495117</ele>
        <time>2011-12-27T09:04:28Z</time>
      </trkpt>
      <trkpt lat="44.81976" lon="1.42375">
        <ele>172.19480895996</ele>
        <time>2011-12-27T09:04:34Z</time>
      </trkpt>
      <trkpt lat="44.81982" lon="1.42357">
        <ele>172.23115539551</ele>
        <time>2011-12-27T09:04:40Z</time>
      </trkpt>
      <trkpt lat="44.81989" lon="1.42343">
        <ele>172.25531005859</ele>
        <time>2011-12-27T09:04:45Z</time>
      </trkpt>
      <trkpt lat="44.81995" lon="1.42326">
        <ele>172.31004333496</ele>
        <time>2011-12-27T09:04:51Z</time>
      </trkpt>
      <trkpt lat="44.82" lon="1.42305">
        <ele>172.00207519531</ele>
        <time>2011-12-27T09:04:57Z</time>
      </trkpt>
      <trkpt lat="44.82006" lon="1.42287">
        <ele>171.45361328125</ele>
        <time>2011-12-27T09:05:03Z</time>
      </trkpt>
      <trkpt lat="44.82008" lon="1.42269">
        <ele>171.197265625</ele>
        <time>2011-12-27T09:05:08Z</time>
      </trkpt>
      <trkpt lat="44.82008" lon="1.42245">
        <ele>171.3702545166</ele>
        <time>2011-12-27T09:05:14Z</time>
      </trkpt>
      <trkpt lat="44.82006" lon="1.42225">
        <ele>171.95796203613</ele>
        <time>2011-12-27T09:05:19Z</time>
      </trkpt>
      <trkpt lat="44.82006" lon="1.42205">
        <ele>172.3690032959</ele>
        <time>2011-12-27T09:05:24Z</time>
      </trkpt>
      <trkpt lat="44.82013" lon="1.42191">
        <ele>171.83712768555</ele>
        <time>2011-12-27T09:05:29Z</time>
      </trkpt>
      <trkpt lat="44.82024" lon="1.42183">
        <ele>170.60639953613</ele>
        <time>2011-12-27T09:05:34Z</time>
      </trkpt>
      <trkpt lat="44.82032" lon="1.42177">
        <ele>169.66995239258</ele>
        <time>2011-12-27T09:05:38Z</time>
      </trkpt>
      <trkpt lat="44.82045" lon="1.42173">
        <ele>168.08465576172</ele>
        <time>2011-12-27T09:05:43Z</time>
      </trkpt>
      <trkpt lat="44.82054" lon="1.42161">
        <ele>167.26443481445</ele>
        <time>2011-12-27T09:05:48Z</time>
      </trkpt>
      <trkpt lat="44.82066" lon="1.42151">
        <ele>166.28773498535</ele>
        <time>2011-12-27T09:05:53Z</time>
      </trkpt>
      <trkpt lat="44.82076" lon="1.42138">
        <ele>165.71078491211</ele>
        <time>2011-12-27T09:05:58Z</time>
      </trkpt>
      <trkpt lat="44.82086" lon="1.42125">
        <ele>165.01725769043</ele>
        <time>2011-12-27T09:06:03Z</time>
      </trkpt>
      <trkpt lat="44.82098" lon="1.42109">
        <ele>163.47456359863</ele>
        <time>2011-12-27T09:06:10Z</time>
      </trkpt>
      <trkpt lat="44.82109" lon="1.42095">
        <ele>161.66491699219</ele>
        <time>2011-12-27T09:06:16Z</time>
      </trkpt>
      <trkpt lat="44.82115" lon="1.42091">
        <ele>160.60786437988</ele>
        <time>2011-12-27T09:06:18Z</time>
      </trkpt>
      <trkpt lat="44.82127" lon="1.42075">
        <ele>158.05517578125</ele>
        <time>2011-12-27T09:06:24Z</time>
      </trkpt>
      <trkpt lat="44.82144" lon="1.42054">
        <ele>154.31777954102</ele>
        <time>2011-12-27T09:06:31Z</time>
      </trkpt>
      <trkpt lat="44.82152" lon="1.42042">
        <ele>152.47706604004</ele>
        <time>2011-12-27T09:06:35Z</time>
      </trkpt>
      <trkpt lat="44.82161" lon="1.42021">
        <ele>150.31298828125</ele>
        <time>2011-12-27T09:06:41Z</time>
      </trkpt>
      <trkpt lat="44.82174" lon="1.41998">
        <ele>149.37928771973</ele>
        <time>2011-12-27T09:06:48Z</time>
      </trkpt>
      <trkpt lat="44.82183" lon="1.41978">
        <ele>150.33212280273</ele>
        <time>2011-12-27T09:06:53Z</time>
      </trkpt>
      <trkpt lat="44.82189" lon="1.41967">
        <ele>150.62329101562</ele>
        <time>2011-12-27T09:06:56Z</time>
      </trkpt>
      <trkpt lat="44.82197" lon="1.4195">
        <ele>150.69863891602</ele>
        <time>2011-12-27T09:07:00Z</time>
      </trkpt>
      <trkpt lat="44.82207" lon="1.41932">
        <ele>150.20733642578</ele>
        <time>2011-12-27T09:07:05Z</time>
      </trkpt>
      <trkpt lat="44.82216" lon="1.41914">
        <ele>149.4308013916</ele>
        <time>2011-12-27T09:07:10Z</time>
      </trkpt>
      <trkpt lat="44.82228" lon="1.41892">
        <ele>150.03218078613</ele>
        <time>2011-12-27T09:07:16Z</time>
      </trkpt>
      <trkpt lat="44.82239" lon="1.41873">
        <ele>150.58354187012</ele>
        <time>2011-12-27T09:07:22Z</time>
      </trkpt>
      <trkpt lat="44.82253" lon="1.41858">
        <ele>150.87573242188</ele>
        <time>2011-12-27T09:07:28Z</time>
      </trkpt>
      <trkpt lat="44.82265" lon="1.41848">
        <ele>151.21147155762</ele>
        <time>2011-12-27T09:07:33Z</time>
      </trkpt>
      <trkpt lat="44.82278" lon="1.4184">
        <ele>151.04351806641</ele>
        <time>2011-12-27T09:07:38Z</time>
      </trkpt>
      <trkpt lat="44.82292" lon="1.4183">
        <ele>150.98544311523</ele>
        <time>2011-12-27T09:07:43Z</time>
      </trkpt>
      <trkpt lat="44.82305" lon="1.41822">
        <ele>151.45498657227</ele>
        <time>2011-12-27T09:07:48Z</time>
      </trkpt>
      <trkpt lat="44.82317" lon="1.41817">
        <ele>151.62451171875</ele>
        <time>2011-12-27T09:07:52Z</time>
      </trkpt>
      <trkpt lat="44.82334" lon="1.41812">
        <ele>151.27291870117</ele>
        <time>2011-12-27T09:07:58Z</time>
      </trkpt>
      <trkpt lat="44.82343" lon="1.41809">
        <ele>151.19676208496</ele>
        <time>2011-12-27T09:08:01Z</time>
      </trkpt>
      <trkpt lat="44.8236" lon="1.41807">
        <ele>150.3459777832</ele>
        <time>2011-12-27T09:08:07Z</time>
      </trkpt>
      <trkpt lat="44.82376" lon="1.41799">
        <ele>149.89631652832</ele>
        <time>2011-12-27T09:08:12Z</time>
      </trkpt>
      <trkpt lat="44.82391" lon="1.41782">
        <ele>149.40721130371</ele>
        <time>2011-12-27T09:08:18Z</time>
      </trkpt>
      <trkpt lat="44.82405" lon="1.41766">
        <ele>147.84648132324</ele>
        <time>2011-12-27T09:08:24Z</time>
      </trkpt>
      <trkpt lat="44.8242" lon="1.41752">
        <ele>145.76559448242</ele>
        <time>2011-12-27T09:08:30Z</time>
      </trkpt>
      <trkpt lat="44.8243" lon="1.41744">
        <ele>145.33329772949</ele>
        <time>2011-12-27T09:08:34Z</time>
      </trkpt>
      <trkpt lat="44.82447" lon="1.41725">
        <ele>145.24961853027</ele>
        <time>2011-12-27T09:08:41Z</time>
      </trkpt>
      <trkpt lat="44.82462" lon="1.41709">
        <ele>144.85093688965</ele>
        <time>2011-12-27T09:08:47Z</time>
      </trkpt>
      <trkpt lat="44.8248" lon="1.41696">
        <ele>143.69731140137</ele>
        <time>2011-12-27T09:08:54Z</time>
      </trkpt>
      <trkpt lat="44.82488" lon="1.41691">
        <ele>143.16751098633</ele>
        <time>2011-12-27T09:08:57Z</time>
      </trkpt>
      <trkpt lat="44.82498" lon="1.41682">
        <ele>142.44866943359</ele>
        <time>2011-12-27T09:09:01Z</time>
      </trkpt>
      <trkpt lat="44.82512" lon="1.41673">
        <ele>142.23899841309</ele>
        <time>2011-12-27T09:09:06Z</time>
      </trkpt>
      <trkpt lat="44.82526" lon="1.41659">
        <ele>141.89041137695</ele>
        <time>2011-12-27T09:09:12Z</time>
      </trkpt>
      <trkpt lat="44.82538" lon="1.41645">
        <ele>141.49028015137</ele>
        <time>2011-12-27T09:09:17Z</time>
      </trkpt>
      <trkpt lat="44.8254" lon="1.41642">
        <ele>141.39189147949</ele>
        <time>2011-12-27T09:09:18Z</time>
      </trkpt>
      <trkpt lat="44.82545" lon="1.4162">
        <ele>141.27987670898</ele>
        <time>2011-12-27T09:09:24Z</time>
      </trkpt>
      <trkpt lat="44.82544" lon="1.41605">
        <ele>141.51950073242</ele>
        <time>2011-12-27T09:09:28Z</time>
      </trkpt>
      <trkpt lat="44.82541" lon="1.41586">
        <ele>142.04214477539</ele>
        <time>2011-12-27T09:09:33Z</time>
      </trkpt>
      <trkpt lat="44.82534" lon="1.41567">
        <ele>141.33345031738</ele>
        <time>2011-12-27T09:09:38Z</time>
      </trkpt>
      <trkpt lat="44.82525" lon="1.41553">
        <ele>140.79846191406</ele>
        <time>2011-12-27T09:09:42Z</time>
      </trkpt>
      <trkpt lat="44.82514" lon="1.41537">
        <ele>139.98492431641</ele>
        <time>2011-12-27T09:09:47Z</time>
      </trkpt>
      <trkpt lat="44.82503" lon="1.41517">
        <ele>138.61676025391</ele>
        <time>2011-12-27T09:09:53Z</time>
      </trkpt>
      <trkpt lat="44.82492" lon="1.41496">
        <ele>137.38067626953</ele>
        <time>2011-12-27T09:09:59Z</time>
      </trkpt>
      <trkpt lat="44.82487" lon="1.41482">
        <ele>136.4446105957</ele>
        <time>2011-12-27T09:10:03Z</time>
      </trkpt>
      <trkpt lat="44.82475" lon="1.41468">
        <ele>135.92028808594</ele>
        <time>2011-12-27T09:10:08Z</time>
      </trkpt>
      <trkpt lat="44.8246" lon="1.41458">
        <ele>135.83863830566</ele>
        <time>2011-12-27T09:10:13Z</time>
      </trkpt>
      <trkpt lat="44.82447" lon="1.4145">
        <ele>135.71527099609</ele>
        <time>2011-12-27T09:10:18Z</time>
      </trkpt>
      <trkpt lat="44.82436" lon="1.41449">
        <ele>136.1886138916</ele>
        <time>2011-12-27T09:10:22Z</time>
      </trkpt>
      <trkpt lat="44.82418" lon="1.41449">
        <ele>137.20262145996</ele>
        <time>2011-12-27T09:10:28Z</time>
      </trkpt>
      <trkpt lat="44.82405" lon="1.41453">
        <ele>137.88107299805</ele>
        <time>2011-12-27T09:10:33Z</time>
      </trkpt>
      <trkpt lat="44.82394" lon="1.41458">
        <ele>138.53137207031</ele>
        <time>2011-12-27T09:10:37Z</time>
      </trkpt>
      <trkpt lat="44.82389" lon="1.41459">
        <ele>138.70896911621</ele>
        <time>2011-12-27T09:10:39Z</time>
      </trkpt>
      <trkpt lat="44.82373" lon="1.41464">
        <ele>139.49194335938</ele>
        <time>2011-12-27T09:10:45Z</time>
      </trkpt>
      <trkpt lat="44.82361" lon="1.41465">
        <ele>139.62942504883</ele>
        <time>2011-12-27T09:10:49Z</time>
      </trkpt>
      <trkpt lat="44.82351" lon="1.41468">
        <ele>140.05740356445</ele>
        <time>2011-12-27T09:10:53Z</time>
      </trkpt>
      <trkpt lat="44.82339" lon="1.4147">
        <ele>140.31762695312</ele>
        <time>2011-12-27T09:10:57Z</time>
      </trkpt>
      <trkpt lat="44.82329" lon="1.41472">
        <ele>140.65313720703</ele>
        <time>2011-12-27T09:11:00Z</time>
      </trkpt>
      <trkpt lat="44.82315" lon="1.41473">
        <ele>140.61013793945</ele>
        <time>2011-12-27T09:11:05Z</time>
      </trkpt>
      <trkpt lat="44.8231" lon="1.41473">
        <ele>140.59358215332</ele>
        <time>2011-12-27T09:11:07Z</time>
      </trkpt>
      <trkpt lat="44.82291" lon="1.41477">
        <ele>140.83782958984</ele>
        <time>2011-12-27T09:11:14Z</time>
      </trkpt>
      <trkpt lat="44.8228" lon="1.41477">
        <ele>140.82531738281</ele>
        <time>2011-12-27T09:11:19Z</time>
      </trkpt>
      <trkpt lat="44.82269" lon="1.41481">
        <ele>141.07147216797</ele>
        <time>2011-12-27T09:11:23Z</time>
      </trkpt>
      <trkpt lat="44.82256" lon="1.41483">
        <ele>141.25540161133</ele>
        <time>2011-12-27T09:11:28Z</time>
      </trkpt>
      <trkpt lat="44.82243" lon="1.41486">
        <ele>141.15113830566</ele>
        <time>2011-12-27T09:11:33Z</time>
      </trkpt>
      <trkpt lat="44.82232" lon="1.41487">
        <ele>140.82673645019</ele>
        <time>2011-12-27T09:11:37Z</time>
      </trkpt>
      <trkpt lat="44.8222" lon="1.41491">
        <ele>140.6955871582</ele>
        <time>2011-12-27T09:11:41Z</time>
      </trkpt>
      <trkpt lat="44.82206" lon="1.41493">
        <ele>140.32246398926</ele>
        <time>2011-12-27T09:11:46Z</time>
      </trkpt>
      <trkpt lat="44.82204" lon="1.41493">
        <ele>140.19346618652</ele>
        <time>2011-12-27T09:11:47Z</time>
      </trkpt>
      <trkpt lat="44.82187" lon="1.41494">
        <ele>139.53125</ele>
        <time>2011-12-27T09:11:53Z</time>
      </trkpt>
      <trkpt lat="44.82185" lon="1.41493">
        <ele>139.39190673828</ele>
        <time>2011-12-27T09:11:54Z</time>
      </trkpt>
      <trkpt lat="44.8217" lon="1.41493">
        <ele>138.75399780273</ele>
        <time>2011-12-27T09:11:59Z</time>
      </trkpt>
      <trkpt lat="44.82156" lon="1.41492">
        <ele>138.35559082031</ele>
        <time>2011-12-27T09:12:04Z</time>
      </trkpt>
      <trkpt lat="44.82146" lon="1.41492">
        <ele>138.17144775391</ele>
        <time>2011-12-27T09:12:08Z</time>
      </trkpt>
      <trkpt lat="44.82133" lon="1.41495">
        <ele>138.02397155762</ele>
        <time>2011-12-27T09:12:13Z</time>
      </trkpt>
      <trkpt lat="44.82118" lon="1.41501">
        <ele>137.98930358887</ele>
        <time>2011-12-27T09:12:19Z</time>
      </trkpt>
      <trkpt lat="44.82103" lon="1.41508">
        <ele>138.99388122559</ele>
        <time>2011-12-27T09:12:25Z</time>
      </trkpt>
      <trkpt lat="44.82087" lon="1.41514">
        <ele>139.64289855957</ele>
        <time>2011-12-27T09:12:31Z</time>
      </trkpt>
      <trkpt lat="44.8207" lon="1.41519">
        <ele>140.36602783203</ele>
        <time>2011-12-27T09:12:37Z</time>
      </trkpt>
      <trkpt lat="44.82055" lon="1.41521">
        <ele>140.76942443848</ele>
        <time>2011-12-27T09:12:42Z</time>
      </trkpt>
      <trkpt lat="44.82041" lon="1.41521">
        <ele>140.76942443848</ele>
        <time>2011-12-27T09:12:47Z</time>
      </trkpt>
      <trkpt lat="44.82027" lon="1.4152">
        <ele>140.52481079102</ele>
        <time>2011-12-27T09:12:52Z</time>
      </trkpt>
      <trkpt lat="44.82014" lon="1.41514">
        <ele>139.59140014648</ele>
        <time>2011-12-27T09:12:57Z</time>
      </trkpt>
      <trkpt lat="44.82" lon="1.41511">
        <ele>139.01664733887</ele>
        <time>2011-12-27T09:13:02Z</time>
      </trkpt>
      <trkpt lat="44.81983" lon="1.4151">
        <ele>138.93272399902</ele>
        <time>2011-12-27T09:13:08Z</time>
      </trkpt>
      <trkpt lat="44.81968" lon="1.4151">
        <ele>139.18013000488</ele>
        <time>2011-12-27T09:13:13Z</time>
      </trkpt>
      <trkpt lat="44.81965" lon="1.4151">
        <ele>139.17680358887</ele>
        <time>2011-12-27T09:13:14Z</time>
      </trkpt>
      <trkpt lat="44.81948" lon="1.41513">
        <ele>139.921875</ele>
        <time>2011-12-27T09:13:20Z</time>
      </trkpt>
      <trkpt lat="44.81936" lon="1.41518">
        <ele>140.92765808106</ele>
        <time>2011-12-27T09:13:25Z</time>
      </trkpt>
      <trkpt lat="44.81925" lon="1.41524">
        <ele>141.90670776367</ele>
        <time>2011-12-27T09:13:29Z</time>
      </trkpt>
      <trkpt lat="44.81908" lon="1.4153">
        <ele>143.01695251465</ele>
        <time>2011-12-27T09:13:35Z</time>
      </trkpt>
      <trkpt lat="44.8189" lon="1.41534">
        <ele>143.82064819336</ele>
        <time>2011-12-27T09:13:41Z</time>
      </trkpt>
      <trkpt lat="44.81877" lon="1.41534">
        <ele>143.95411682129</ele>
        <time>2011-12-27T09:13:46Z</time>
      </trkpt>
      <trkpt lat="44.81867" lon="1.41534">
        <ele>143.91117858887</ele>
        <time>2011-12-27T09:13:50Z</time>
      </trkpt>
      <trkpt lat="44.8186" lon="1.41528">
        <ele>142.98062133789</ele>
        <time>2011-12-27T09:13:54Z</time>
      </trkpt>
      <trkpt lat="44.81855" lon="1.41502">
        <ele>138.4208984375</ele>
        <time>2011-12-27T09:14:01Z</time>
      </trkpt>
      <trkpt lat="44.81856" lon="1.41479">
        <ele>138.5145111084</ele>
        <time>2011-12-27T09:14:07Z</time>
      </trkpt>
      <trkpt lat="44.81858" lon="1.41455">
        <ele>139.08927917481</ele>
        <time>2011-12-27T09:14:13Z</time>
      </trkpt>
      <trkpt lat="44.81861" lon="1.41434">
        <ele>139.59396362305</ele>
        <time>2011-12-27T09:14:18Z</time>
      </trkpt>
      <trkpt lat="44.81866" lon="1.4142">
        <ele>139.90896606445</ele>
        <time>2011-12-27T09:14:22Z</time>
      </trkpt>
      <trkpt lat="44.8187" lon="1.41402">
        <ele>141.76069641113</ele>
        <time>2011-12-27T09:14:27Z</time>
      </trkpt>
      <trkpt lat="44.81878" lon="1.41385">
        <ele>143.85639953613</ele>
        <time>2011-12-27T09:14:33Z</time>
      </trkpt>
      <trkpt lat="44.8189" lon="1.41384">
        <ele>143.9651184082</ele>
        <time>2011-12-27T09:14:38Z</time>
      </trkpt>
      <trkpt lat="44.81906" lon="1.41386">
        <ele>143.69618225098</ele>
        <time>2011-12-27T09:14:44Z</time>
      </trkpt>
      <trkpt lat="44.81923" lon="1.41387">
        <ele>143.62382507324</ele>
        <time>2011-12-27T09:14:50Z</time>
      </trkpt>
      <trkpt lat="44.81936" lon="1.41389">
        <ele>143.54833984375</ele>
        <time>2011-12-27T09:14:55Z</time>
      </trkpt>
      <trkpt lat="44.81947" lon="1.41389">
        <ele>143.70712280273</ele>
        <time>2011-12-27T09:14:59Z</time>
      </trkpt>
      <trkpt lat="44.81947" lon="1.4138">
        <ele>145.0330657959</ele>
        <time>2011-12-27T09:15:03Z</time>
      </trkpt>
      <trkpt lat="44.81946" lon="1.41377">
        <ele>145.35580444336</ele>
        <time>2011-12-27T09:15:04Z</time>
      </trkpt>
      <trkpt lat="44.81936" lon="1.41365">
        <ele>146.78015136719</ele>
        <time>2011-12-27T09:15:10Z</time>
      </trkpt>
      <trkpt lat="44.8193" lon="1.4136">
        <ele>147.34298706055</ele>
        <time>2011-12-27T09:15:13Z</time>
      </trkpt>
      <trkpt lat="44.81915" lon="1.41349">
        <ele>148.15222167969</ele>
        <time>2011-12-27T09:15:20Z</time>
      </trkpt>
      <trkpt lat="44.81902" lon="1.41343">
        <ele>148.8503112793</ele>
        <time>2011-12-27T09:15:25Z</time>
      </trkpt>
      <trkpt lat="44.8189" lon="1.41339">
        <ele>149.306640625</ele>
        <time>2011-12-27T09:15:30Z</time>
      </trkpt>
      <trkpt lat="44.81876" lon="1.41339">
        <ele>149.35098266602</ele>
        <time>2011-12-27T09:15:35Z</time>
      </trkpt>
      <trkpt lat="44.81866" lon="1.41331">
        <ele>150.08772277832</ele>
        <time>2011-12-27T09:15:40Z</time>
      </trkpt>
      <trkpt lat="44.81864" lon="1.41318">
        <ele>150.52186584473</ele>
        <time>2011-12-27T09:15:44Z</time>
      </trkpt>
      <trkpt lat="44.81869" lon="1.41298">
        <ele>151.16731262207</ele>
        <time>2011-12-27T09:15:50Z</time>
      </trkpt>
      <trkpt lat="44.8187" lon="1.41288">
        <ele>151.44555664062</ele>
        <time>2011-12-27T09:15:53Z</time>
      </trkpt>
      <trkpt lat="44.81884" lon="1.41283">
        <ele>151.31973266602</ele>
        <time>2011-12-27T09:15:59Z</time>
      </trkpt>
      <trkpt lat="44.81903" lon="1.41281">
        <ele>150.94458007812</ele>
        <time>2011-12-27T09:16:06Z</time>
      </trkpt>
      <trkpt lat="44.81917" lon="1.41282">
        <ele>150.6981048584</ele>
        <time>2011-12-27T09:16:11Z</time>
      </trkpt>
      <trkpt lat="44.81932" lon="1.41281">
        <ele>152.98881530762</ele>
        <time>2011-12-27T09:16:16Z</time>
      </trkpt>
      <trkpt lat="44.8195" lon="1.41277">
        <ele>156.16738891602</ele>
        <time>2011-12-27T09:16:22Z</time>
      </trkpt>
      <trkpt lat="44.8196" lon="1.4127">
        <ele>158.40501403809</ele>
        <time>2011-12-27T09:16:26Z</time>
      </trkpt>
      <trkpt lat="44.8196" lon="1.41268">
        <ele>158.75439453125</ele>
        <time>2011-12-27T09:16:27Z</time>
      </trkpt>
      <trkpt lat="44.81955" lon="1.41255">
        <ele>158.79429626465</ele>
        <time>2011-12-27T09:16:32Z</time>
      </trkpt>
      <trkpt lat="44.8195" lon="1.41241">
        <ele>158.84197998047</ele>
        <time>2011-12-27T09:16:36Z</time>
      </trkpt>
      <trkpt lat="44.81946" lon="1.4123">
        <ele>158.84365844727</ele>
        <time>2011-12-27T09:16:39Z</time>
      </trkpt>
      <trkpt lat="44.81938" lon="1.41207">
        <ele>158.37673950195</ele>
        <time>2011-12-27T09:16:45Z</time>
      </trkpt>
      <trkpt lat="44.81933" lon="1.41187">
        <ele>158.20986938477</ele>
        <time>2011-12-27T09:16:50Z</time>
      </trkpt>
      <trkpt lat="44.81928" lon="1.41171">
        <ele>157.53770446777</ele>
        <time>2011-12-27T09:16:54Z</time>
      </trkpt>
      <trkpt lat="44.81921" lon="1.41151">
        <ele>157.41189575195</ele>
        <time>2011-12-27T09:16:59Z</time>
      </trkpt>
      <trkpt lat="44.81915" lon="1.41131">
        <ele>158.1417388916</ele>
        <time>2011-12-27T09:17:04Z</time>
      </trkpt>
      <trkpt lat="44.81908" lon="1.41119">
        <ele>158.94166564941</ele>
        <time>2011-12-27T09:17:08Z</time>
      </trkpt>
      <trkpt lat="44.81906" lon="1.41112">
        <ele>159.45489501953</ele>
        <time>2011-12-27T09:17:10Z</time>
      </trkpt>
      <trkpt lat="44.81902" lon="1.41091">
        <ele>161.08087158203</ele>
        <time>2011-12-27T09:17:16Z</time>
      </trkpt>
      <trkpt lat="44.81898" lon="1.41077">
        <ele>161.81646728516</ele>
        <time>2011-12-27T09:17:20Z</time>
      </trkpt>
      <trkpt lat="44.81895" lon="1.41057">
        <ele>162.451171875</ele>
        <time>2011-12-27T09:17:25Z</time>
      </trkpt>
      <trkpt lat="44.81891" lon="1.41033">
        <ele>163.41108703613</ele>
        <time>2011-12-27T09:17:32Z</time>
      </trkpt>
      <trkpt lat="44.8189" lon="1.41017">
        <ele>164.15190124512</ele>
        <time>2011-12-27T09:17:37Z</time>
      </trkpt>
      <trkpt lat="44.81887" lon="1.41004">
        <ele>164.44273376465</ele>
        <time>2011-12-27T09:17:41Z</time>
      </trkpt>
      <trkpt lat="44.81884" lon="1.40985">
        <ele>165.53251647949</ele>
        <time>2011-12-27T09:17:46Z</time>
      </trkpt>
      <trkpt lat="44.81876" lon="1.40968">
        <ele>166.24963378906</ele>
        <time>2011-12-27T09:17:51Z</time>
      </trkpt>
      <trkpt lat="44.81868" lon="1.40954">
        <ele>167.07939147949</ele>
        <time>2011-12-27T09:17:55Z</time>
      </trkpt>
      <trkpt lat="44.81864" lon="1.4095">
        <ele>167.20149230957</ele>
        <time>2011-12-27T09:17:57Z</time>
      </trkpt>
      <trkpt lat="44.81856" lon="1.40959">
        <ele>165.14414978027</ele>
        <time>2011-12-27T09:18:01Z</time>
      </trkpt>
      <trkpt lat="44.81854" lon="1.40963">
        <ele>164.36585998535</ele>
        <time>2011-12-27T09:18:02Z</time>
      </trkpt>
      <trkpt lat="44.81844" lon="1.40981">
        <ele>160.19027709961</ele>
        <time>2011-12-27T09:18:07Z</time>
      </trkpt>
      <trkpt lat="44.81832" lon="1.40991">
        <ele>156.84338378906</ele>
        <time>2011-12-27T09:18:11Z</time>
      </trkpt>
      <trkpt lat="44.81818" lon="1.40991">
        <ele>157.11174011231</ele>
        <time>2011-12-27T09:18:16Z</time>
      </trkpt>
      <trkpt lat="44.81806" lon="1.40983">
        <ele>158.48231506348</ele>
        <time>2011-12-27T09:18:21Z</time>
      </trkpt>
      <trkpt lat="44.81792" lon="1.40977">
        <ele>159.41638183594</ele>
        <time>2011-12-27T09:18:26Z</time>
      </trkpt>
      <trkpt lat="44.8178" lon="1.40969">
        <ele>160.27406311035</ele>
        <time>2011-12-27T09:18:31Z</time>
      </trkpt>
      <trkpt lat="44.81767" lon="1.40956">
        <ele>161.2294921875</ele>
        <time>2011-12-27T09:18:37Z</time>
      </trkpt>
      <trkpt lat="44.81755" lon="1.40942">
        <ele>161.78916931152</ele>
        <time>2011-12-27T09:18:42Z</time>
      </trkpt>
      <trkpt lat="44.81751" lon="1.40929">
        <ele>162.33116149902</ele>
        <time>2011-12-27T09:18:46Z</time>
      </trkpt>
      <trkpt lat="44.81745" lon="1.40907">
        <ele>163.91766357422</ele>
        <time>2011-12-27T09:18:53Z</time>
      </trkpt>
      <trkpt lat="44.81743" lon="1.40884">
        <ele>165.90437316894</ele>
        <time>2011-12-27T09:18:59Z</time>
      </trkpt>
      <trkpt lat="44.81741" lon="1.40865">
        <ele>167.48445129394</ele>
        <time>2011-12-27T09:19:04Z</time>
      </trkpt>
      <trkpt lat="44.81739" lon="1.40847">
        <ele>168.85438537598</ele>
        <time>2011-12-27T09:19:09Z</time>
      </trkpt>
      <trkpt lat="44.81737" lon="1.40828">
        <ele>170.05635070801</ele>
        <time>2011-12-27T09:19:14Z</time>
      </trkpt>
      <trkpt lat="44.81734" lon="1.40816">
        <ele>170.5471496582</ele>
        <time>2011-12-27T09:19:17Z</time>
      </trkpt>
      <trkpt lat="44.81734" lon="1.40808">
        <ele>170.98217773438</ele>
        <time>2011-12-27T09:19:19Z</time>
      </trkpt>
      <trkpt lat="44.8173" lon="1.40785">
        <ele>171.83422851562</ele>
        <time>2011-12-27T09:19:25Z</time>
      </trkpt>
      <trkpt lat="44.81729" lon="1.40773">
        <ele>172.3518371582</ele>
        <time>2011-12-27T09:19:29Z</time>
      </trkpt>
      <trkpt lat="44.81726" lon="1.40761">
        <ele>172.60241699219</ele>
        <time>2011-12-27T09:19:33Z</time>
      </trkpt>
      <trkpt lat="44.81714" lon="1.40744">
        <ele>172.21458435059</ele>
        <time>2011-12-27T09:19:39Z</time>
      </trkpt>
      <trkpt lat="44.81705" lon="1.40734">
        <ele>172.232421875</ele>
        <time>2011-12-27T09:19:43Z</time>
      </trkpt>
      <trkpt lat="44.81693" lon="1.40718">
        <ele>172.44827270508</ele>
        <time>2011-12-27T09:19:49Z</time>
      </trkpt>
      <trkpt lat="44.81683" lon="1.407">
        <ele>173.44338989258</ele>
        <time>2011-12-27T09:19:55Z</time>
      </trkpt>
      <trkpt lat="44.81675" lon="1.40687">
        <ele>174.25532531738</ele>
        <time>2011-12-27T09:20:00Z</time>
      </trkpt>
      <trkpt lat="44.81664" lon="1.40669">
        <ele>175.25778198242</ele>
        <time>2011-12-27T09:20:07Z</time>
      </trkpt>
      <trkpt lat="44.81655" lon="1.40653">
        <ele>176.4588470459</ele>
        <time>2011-12-27T09:20:12Z</time>
      </trkpt>
      <trkpt lat="44.81646" lon="1.40638">
        <ele>177.36840820312</ele>
        <time>2011-12-27T09:20:17Z</time>
      </trkpt>
      <trkpt lat="44.81636" lon="1.40622">
        <ele>177.73815917969</ele>
        <time>2011-12-27T09:20:22Z</time>
      </trkpt>
      <trkpt lat="44.8163" lon="1.40604">
        <ele>178.70288085938</ele>
        <time>2011-12-27T09:20:27Z</time>
      </trkpt>
      <trkpt lat="44.81622" lon="1.40583">
        <ele>179.09446716309</ele>
        <time>2011-12-27T09:20:33Z</time>
      </trkpt>
      <trkpt lat="44.81614" lon="1.40568">
        <ele>178.91711425781</ele>
        <time>2011-12-27T09:20:38Z</time>
      </trkpt>
      <trkpt lat="44.81605" lon="1.40555">
        <ele>178.00550842285</ele>
        <time>2011-12-27T09:20:43Z</time>
      </trkpt>
      <trkpt lat="44.81599" lon="1.40547">
        <ele>177.22312927246</ele>
        <time>2011-12-27T09:20:46Z</time>
      </trkpt>
      <trkpt lat="44.81589" lon="1.40541">
        <ele>175.51983642578</ele>
        <time>2011-12-27T09:20:50Z</time>
      </trkpt>
      <trkpt lat="44.81583" lon="1.40535">
        <ele>174.87495422363</ele>
        <time>2011-12-27T09:20:53Z</time>
      </trkpt>
      <trkpt lat="44.81582" lon="1.40519">
        <ele>176.82164001465</ele>
        <time>2011-12-27T09:20:59Z</time>
      </trkpt>
      <trkpt lat="44.81583" lon="1.40517">
        <ele>176.99145507812</ele>
        <time>2011-12-27T09:21:00Z</time>
      </trkpt>
      <trkpt lat="44.81586" lon="1.405">
        <ele>179.57745361328</ele>
        <time>2011-12-27T09:21:06Z</time>
      </trkpt>
      <trkpt lat="44.81588" lon="1.40477">
        <ele>183.96388244629</ele>
        <time>2011-12-27T09:21:14Z</time>
      </trkpt>
      <trkpt lat="44.81589" lon="1.40459">
        <ele>187.41995239258</ele>
        <time>2011-12-27T09:21:20Z</time>
      </trkpt>
      <trkpt lat="44.8159" lon="1.40448">
        <ele>189.51243591309</ele>
        <time>2011-12-27T09:21:25Z</time>
      </trkpt>
      <trkpt lat="44.81588" lon="1.40432">
        <ele>191.81318664551</ele>
        <time>2011-12-27T09:21:29Z</time>
      </trkpt>
      <trkpt lat="44.81585" lon="1.40418">
        <ele>194.01736450195</ele>
        <time>2011-12-27T09:21:34Z</time>
      </trkpt>
      <trkpt lat="44.81581" lon="1.40403">
        <ele>196.51325988769</ele>
        <time>2011-12-27T09:21:40Z</time>
      </trkpt>
      <trkpt lat="44.8158" lon="1.40382">
        <ele>200.12574768066</ele>
        <time>2011-12-27T09:21:47Z</time>
      </trkpt>
      <trkpt lat="44.8158" lon="1.4037">
        <ele>202.09602355957</ele>
        <time>2011-12-27T09:21:51Z</time>
      </trkpt>
      <trkpt lat="44.81589" lon="1.4036">
        <ele>203.98849487305</ele>
        <time>2011-12-27T09:21:57Z</time>
      </trkpt>
      <trkpt lat="44.81592" lon="1.40359">
        <ele>204.48332214356</ele>
        <time>2011-12-27T09:21:59Z</time>
      </trkpt>
      <trkpt lat="44.81605" lon="1.40355">
        <ele>206.28623962402</ele>
        <time>2011-12-27T09:22:05Z</time>
      </trkpt>
      <trkpt lat="44.81608" lon="1.40353">
        <ele>206.8420715332</ele>
        <time>2011-12-27T09:22:07Z</time>
      </trkpt>
      <trkpt lat="44.81613" lon="1.4035">
        <ele>207.67390441894</ele>
        <time>2011-12-27T09:22:11Z</time>
      </trkpt>
      <trkpt lat="44.81621" lon="1.4035">
        <ele>208.32998657227</ele>
        <time>2011-12-27T09:22:17Z</time>
      </trkpt>
      <trkpt lat="44.81633" lon="1.40343">
        <ele>210.283203125</ele>
        <time>2011-12-27T09:22:23Z</time>
      </trkpt>
      <trkpt lat="44.81635" lon="1.40341">
        <ele>210.63531494141</ele>
        <time>2011-12-27T09:22:24Z</time>
      </trkpt>
      <trkpt lat="44.81646" lon="1.40339">
        <ele>211.86340332031</ele>
        <time>2011-12-27T09:22:31Z</time>
      </trkpt>
      <trkpt lat="44.81652" lon="1.40341">
        <ele>212.05784606934</ele>
        <time>2011-12-27T09:22:34Z</time>
      </trkpt>
      <trkpt lat="44.81661" lon="1.40344">
        <ele>212.42276000977</ele>
        <time>2011-12-27T09:22:38Z</time>
      </trkpt>
      <trkpt lat="44.8167" lon="1.40351">
        <ele>212.09020996094</ele>
        <time>2011-12-27T09:22:43Z</time>
      </trkpt>
      <trkpt lat="44.8168" lon="1.40359">
        <ele>211.37922668457</ele>
        <time>2011-12-27T09:22:48Z</time>
      </trkpt>
      <trkpt lat="44.81691" lon="1.40366">
        <ele>211.01017761231</ele>
        <time>2011-12-27T09:22:53Z</time>
      </trkpt>
      <trkpt lat="44.81705" lon="1.4036">
        <ele>211.71507263184</ele>
        <time>2011-12-27T09:22:59Z</time>
      </trkpt>
      <trkpt lat="44.81707" lon="1.40359">
        <ele>211.81475830078</ele>
        <time>2011-12-27T09:23:00Z</time>
      </trkpt>
      <trkpt lat="44.8171" lon="1.40368">
        <ele>211.26139831543</ele>
        <time>2011-12-27T09:23:05Z</time>
      </trkpt>
      <trkpt lat="44.81711" lon="1.40389">
        <ele>209.97103881836</ele>
        <time>2011-12-27T09:23:11Z</time>
      </trkpt>
      <trkpt lat="44.81714" lon="1.40405">
        <ele>209.11492919922</ele>
        <time>2011-12-27T09:23:16Z</time>
      </trkpt>
      <trkpt lat="44.81722" lon="1.40425">
        <ele>208.87666320801</ele>
        <time>2011-12-27T09:23:22Z</time>
      </trkpt>
      <trkpt lat="44.81731" lon="1.40438">
        <ele>209.48460388184</ele>
        <time>2011-12-27T09:23:27Z</time>
      </trkpt>
      <trkpt lat="44.81737" lon="1.40443">
        <ele>210.0106048584</ele>
        <time>2011-12-27T09:23:30Z</time>
      </trkpt>
      <trkpt lat="44.81755" lon="1.40459">
        <ele>211.40596008301</ele>
        <time>2011-12-27T09:23:37Z</time>
      </trkpt>
      <trkpt lat="44.81769" lon="1.40469">
        <ele>211.25430297852</ele>
        <time>2011-12-27T09:23:42Z</time>
      </trkpt>
      <trkpt lat="44.81784" lon="1.4048">
        <ele>211.05152893066</ele>
        <time>2011-12-27T09:23:47Z</time>
      </trkpt>
      <trkpt lat="44.81798" lon="1.40492">
        <ele>210.80546569824</ele>
        <time>2011-12-27T09:23:53Z</time>
      </trkpt>
      <trkpt lat="44.81813" lon="1.40506">
        <ele>210.10005187988</ele>
        <time>2011-12-27T09:24:00Z</time>
      </trkpt>
      <trkpt lat="44.81831" lon="1.40521">
        <ele>208.76469421387</ele>
        <time>2011-12-27T09:24:08Z</time>
      </trkpt>
      <trkpt lat="44.81843" lon="1.40532">
        <ele>208.41793823242</ele>
        <time>2011-12-27T09:24:13Z</time>
      </trkpt>
      <trkpt lat="44.81855" lon="1.40551">
        <ele>207.99847412109</ele>
        <time>2011-12-27T09:24:20Z</time>
      </trkpt>
      <trkpt lat="44.81866" lon="1.40575">
        <ele>207.63249206543</ele>
        <time>2011-12-27T09:24:27Z</time>
      </trkpt>
      <trkpt lat="44.81875" lon="1.40598">
        <ele>207.81253051758</ele>
        <time>2011-12-27T09:24:33Z</time>
      </trkpt>
      <trkpt lat="44.81886" lon="1.4062">
        <ele>208.69142150879</ele>
        <time>2011-12-27T09:24:39Z</time>
      </trkpt>
      <trkpt lat="44.81891" lon="1.40636">
        <ele>209.27651977539</ele>
        <time>2011-12-27T09:24:43Z</time>
      </trkpt>
      <trkpt lat="44.81897" lon="1.40651">
        <ele>210.1037902832</ele>
        <time>2011-12-27T09:24:47Z</time>
      </trkpt>
      <trkpt lat="44.81908" lon="1.40667">
        <ele>211.69453430176</ele>
        <time>2011-12-27T09:24:52Z</time>
      </trkpt>
      <trkpt lat="44.81919" lon="1.40678">
        <ele>212.74351501465</ele>
        <time>2011-12-27T09:24:57Z</time>
      </trkpt>
      <trkpt lat="44.81937" lon="1.40687">
        <ele>213.92326354981</ele>
        <time>2011-12-27T09:25:03Z</time>
      </trkpt>
      <trkpt lat="44.81955" lon="1.40694">
        <ele>215.04025268555</ele>
        <time>2011-12-27T09:25:08Z</time>
      </trkpt>
      <trkpt lat="44.81973" lon="1.40707">
        <ele>215.99189758301</ele>
        <time>2011-12-27T09:25:14Z</time>
      </trkpt>
      <trkpt lat="44.81984" lon="1.40714">
        <ele>216.45950317383</ele>
        <time>2011-12-27T09:25:18Z</time>
      </trkpt>
      <trkpt lat="44.81995" lon="1.40725">
        <ele>216.86437988281</ele>
        <time>2011-12-27T09:25:23Z</time>
      </trkpt>
      <trkpt lat="44.82" lon="1.4073">
        <ele>216.9514465332</ele>
        <time>2011-12-27T09:25:25Z</time>
      </trkpt>
      <trkpt lat="44.82024" lon="1.40749">
        <ele>217.48405456543</ele>
        <time>2011-12-27T09:25:31Z</time>
      </trkpt>
      <trkpt lat="44.82035" lon="1.40755">
        <ele>217.25860595703</ele>
        <time>2011-12-27T09:25:34Z</time>
      </trkpt>
      <trkpt lat="44.82041" lon="1.40759">
        <ele>216.96116638184</ele>
        <time>2011-12-27T09:25:36Z</time>
      </trkpt>
      <trkpt lat="44.82056" lon="1.40768">
        <ele>216.80303955078</ele>
        <time>2011-12-27T09:25:41Z</time>
      </trkpt>
      <trkpt lat="44.82067" lon="1.40776">
        <ele>216.69299316406</ele>
        <time>2011-12-27T09:25:45Z</time>
      </trkpt>
      <trkpt lat="44.82084" lon="1.40791">
        <ele>216.47868347168</ele>
        <time>2011-12-27T09:25:51Z</time>
      </trkpt>
      <trkpt lat="44.82096" lon="1.40804">
        <ele>213.73373413086</ele>
        <time>2011-12-27T09:25:56Z</time>
      </trkpt>
      <trkpt lat="44.82107" lon="1.40821">
        <ele>210.89259338379</ele>
        <time>2011-12-27T09:26:01Z</time>
      </trkpt>
      <trkpt lat="44.82122" lon="1.40837">
        <ele>208.30119323731</ele>
        <time>2011-12-27T09:26:06Z</time>
      </trkpt>
      <trkpt lat="44.82141" lon="1.40853">
        <ele>207.04904174805</ele>
        <time>2011-12-27T09:26:12Z</time>
      </trkpt>
      <trkpt lat="44.82158" lon="1.40868">
        <ele>206.29571533203</ele>
        <time>2011-12-27T09:26:17Z</time>
      </trkpt>
      <trkpt lat="44.8217" lon="1.40882">
        <ele>205.73970031738</ele>
        <time>2011-12-27T09:26:21Z</time>
      </trkpt>
      <trkpt lat="44.82185" lon="1.40904">
        <ele>203.76940917969</ele>
        <time>2011-12-27T09:26:26Z</time>
      </trkpt>
      <trkpt lat="44.8219" lon="1.40913">
        <ele>202.89239501953</ele>
        <time>2011-12-27T09:26:28Z</time>
      </trkpt>
      <trkpt lat="44.822" lon="1.40932">
        <ele>201.43669128418</ele>
        <time>2011-12-27T09:26:32Z</time>
      </trkpt>
      <trkpt lat="44.82213" lon="1.40946">
        <ele>199.04664611816</ele>
        <time>2011-12-27T09:26:36Z</time>
      </trkpt>
      <trkpt lat="44.8222" lon="1.40949">
        <ele>197.4319152832</ele>
        <time>2011-12-27T09:26:38Z</time>
      </trkpt>
      <trkpt lat="44.82246" lon="1.40959">
        <ele>192.02359008789</ele>
        <time>2011-12-27T09:26:44Z</time>
      </trkpt>
      <trkpt lat="44.82257" lon="1.40965">
        <ele>190.14247131348</ele>
        <time>2011-12-27T09:26:47Z</time>
      </trkpt>
      <trkpt lat="44.8227" lon="1.40971">
        <ele>188.5106048584</ele>
        <time>2011-12-27T09:26:50Z</time>
      </trkpt>
      <trkpt lat="44.82287" lon="1.40977">
        <ele>186.45651245117</ele>
        <time>2011-12-27T09:26:54Z</time>
      </trkpt>
      <trkpt lat="44.82306" lon="1.40983">
        <ele>184.03460693359</ele>
        <time>2011-12-27T09:26:59Z</time>
      </trkpt>
      <trkpt lat="44.82327" lon="1.40988">
        <ele>181.37431335449</ele>
        <time>2011-12-27T09:27:05Z</time>
      </trkpt>
      <trkpt lat="44.82342" lon="1.40989">
        <ele>179.53443908691</ele>
        <time>2011-12-27T09:27:09Z</time>
      </trkpt>
      <trkpt lat="44.8236" lon="1.4099">
        <ele>177.38566589356</ele>
        <time>2011-12-27T09:27:14Z</time>
      </trkpt>
      <trkpt lat="44.82368" lon="1.40992">
        <ele>176.53924560547</ele>
        <time>2011-12-27T09:27:16Z</time>
      </trkpt>
      <trkpt lat="44.82375" lon="1.41009">
        <ele>175.88168334961</ele>
        <time>2011-12-27T09:27:21Z</time>
      </trkpt>
      <trkpt lat="44.82372" lon="1.41038">
        <ele>175.56428527832</ele>
        <time>2011-12-27T09:27:28Z</time>
      </trkpt>
      <trkpt lat="44.82378" lon="1.41052">
        <ele>174.9094543457</ele>
        <time>2011-12-27T09:27:33Z</time>
      </trkpt>
    </trkseg>
  </trk>
</gpx>